<?xml version="1.0" encoding="UTF-8" standalone="no" ?>
<gpx xmlns="http://www.topografix.com/GPX/1/1" xmlns:xsi="http://www.w3.org/2001/XMLSchema-instance" xsi:schemaLocation="http://www.topografix.com/GPX/1/1 http://www.topografix.com/GPX/1/1/gpx.xsd" version="1.1" creator="VisuGPX - https://www.visugpx.com">
  <metadata>
    <name>De Vénasque au Beaucet</name>
    <desc><![CDATA[Balade entre Venasque et Le Beaucet]]></desc>
  </metadata>
  <trk>
    <name><![CDATA[2018-10-01 13:59:17]]></name>
    <trkseg>
      <trkpt lat="43.9947" lon="5.14816">
        <ele>294.3</ele>
        <time>2018-10-01T07:43:27Z</time>
      </trkpt>
      <trkpt lat="43.99469" lon="5.14817">
        <ele>294.3</ele>
        <time>2018-10-01T07:43:28Z</time>
      </trkpt>
      <trkpt lat="43.99487" lon="5.14808">
        <ele>295.26</ele>
        <time>2018-10-01T07:43:52Z</time>
      </trkpt>
      <trkpt lat="43.99487" lon="5.14807">
        <ele>295.26</ele>
        <time>2018-10-01T07:43:57Z</time>
      </trkpt>
      <trkpt lat="43.99482" lon="5.148">
        <ele>294.3</ele>
        <time>2018-10-01T07:44:12Z</time>
      </trkpt>
      <trkpt lat="43.99481" lon="5.14801">
        <ele>294.3</ele>
        <time>2018-10-01T07:44:40Z</time>
      </trkpt>
      <trkpt lat="43.9948" lon="5.14802">
        <ele>294.3</ele>
        <time>2018-10-01T07:45:05Z</time>
      </trkpt>
      <trkpt lat="43.99482" lon="5.14805">
        <ele>294.3</ele>
        <time>2018-10-01T07:45:28Z</time>
      </trkpt>
      <trkpt lat="43.99485" lon="5.148">
        <ele>294.3</ele>
        <time>2018-10-01T07:45:49Z</time>
      </trkpt>
      <trkpt lat="43.99488" lon="5.148">
        <ele>294.3</ele>
        <time>2018-10-01T07:46:05Z</time>
      </trkpt>
      <trkpt lat="43.99493" lon="5.14795">
        <ele>294.3</ele>
        <time>2018-10-01T07:46:20Z</time>
      </trkpt>
      <trkpt lat="43.99501" lon="5.1478">
        <ele>294.3</ele>
        <time>2018-10-01T07:46:38Z</time>
      </trkpt>
      <trkpt lat="43.995" lon="5.14759">
        <ele>292.86</ele>
        <time>2018-10-01T07:46:55Z</time>
      </trkpt>
      <trkpt lat="43.99502" lon="5.1475">
        <ele>291.9</ele>
        <time>2018-10-01T07:47:07Z</time>
      </trkpt>
      <trkpt lat="43.99512" lon="5.1474">
        <ele>289.97</ele>
        <time>2018-10-01T07:47:20Z</time>
      </trkpt>
      <trkpt lat="43.99527" lon="5.14723">
        <ele>288.05</ele>
        <time>2018-10-01T07:47:39Z</time>
      </trkpt>
      <trkpt lat="43.99544" lon="5.14715">
        <ele>287.09</ele>
        <time>2018-10-01T07:47:55Z</time>
      </trkpt>
      <trkpt lat="43.9955" lon="5.14709">
        <ele>286.13</ele>
        <time>2018-10-01T07:48:02Z</time>
      </trkpt>
      <trkpt lat="43.99565" lon="5.14693">
        <ele>285.17</ele>
        <time>2018-10-01T07:48:21Z</time>
      </trkpt>
      <trkpt lat="43.99583" lon="5.14678">
        <ele>284.21</ele>
        <time>2018-10-01T07:48:39Z</time>
      </trkpt>
      <trkpt lat="43.99603" lon="5.14674">
        <ele>282.77</ele>
        <time>2018-10-01T07:48:53Z</time>
      </trkpt>
      <trkpt lat="43.99616" lon="5.14661">
        <ele>281.8</ele>
        <time>2018-10-01T07:49:10Z</time>
      </trkpt>
      <trkpt lat="43.99632" lon="5.14646">
        <ele>278.92</ele>
        <time>2018-10-01T07:49:32Z</time>
      </trkpt>
      <trkpt lat="43.9964" lon="5.14643">
        <ele>277.96</ele>
        <time>2018-10-01T07:49:41Z</time>
      </trkpt>
      <trkpt lat="43.99653" lon="5.14633">
        <ele>276.52</ele>
        <time>2018-10-01T07:49:57Z</time>
      </trkpt>
      <trkpt lat="43.99664" lon="5.14612">
        <ele>275.56</ele>
        <time>2018-10-01T07:50:15Z</time>
      </trkpt>
      <trkpt lat="43.99676" lon="5.14589">
        <ele>275.56</ele>
        <time>2018-10-01T07:50:36Z</time>
      </trkpt>
      <trkpt lat="43.99676" lon="5.14584">
        <ele>275.56</ele>
        <time>2018-10-01T07:50:39Z</time>
      </trkpt>
      <trkpt lat="43.99683" lon="5.14564">
        <ele>274.11</ele>
        <time>2018-10-01T07:50:58Z</time>
      </trkpt>
      <trkpt lat="43.99684" lon="5.14565">
        <ele>274.11</ele>
        <time>2018-10-01T07:50:59Z</time>
      </trkpt>
      <trkpt lat="43.99683" lon="5.14589">
        <ele>272.19</ele>
        <time>2018-10-01T07:51:19Z</time>
      </trkpt>
      <trkpt lat="43.99677" lon="5.14601">
        <ele>271.23</ele>
        <time>2018-10-01T07:51:29Z</time>
      </trkpt>
      <trkpt lat="43.99675" lon="5.1461">
        <ele>272.67</ele>
        <time>2018-10-01T07:51:35Z</time>
      </trkpt>
      <trkpt lat="43.99674" lon="5.1462">
        <ele>269.31</ele>
        <time>2018-10-01T07:51:42Z</time>
      </trkpt>
      <trkpt lat="43.99678" lon="5.14627">
        <ele>266.9</ele>
        <time>2018-10-01T07:52:00Z</time>
      </trkpt>
      <trkpt lat="43.9969" lon="5.14612">
        <ele>264.02</ele>
        <time>2018-10-01T07:52:16Z</time>
      </trkpt>
      <trkpt lat="43.99691" lon="5.14609">
        <ele>263.06</ele>
        <time>2018-10-01T07:52:18Z</time>
      </trkpt>
      <trkpt lat="43.99693" lon="5.14607">
        <ele>264.5</ele>
        <time>2018-10-01T07:52:20Z</time>
      </trkpt>
      <trkpt lat="43.99701" lon="5.14592">
        <ele>261.14</ele>
        <time>2018-10-01T07:52:39Z</time>
      </trkpt>
      <trkpt lat="43.99703" lon="5.1459">
        <ele>260.65</ele>
        <time>2018-10-01T07:52:41Z</time>
      </trkpt>
      <trkpt lat="43.99706" lon="5.14586">
        <ele>259.21</ele>
        <time>2018-10-01T07:52:47Z</time>
      </trkpt>
      <trkpt lat="43.99709" lon="5.14582">
        <ele>260.65</ele>
        <time>2018-10-01T07:52:52Z</time>
      </trkpt>
      <trkpt lat="43.99717" lon="5.14573">
        <ele>259.21</ele>
        <time>2018-10-01T07:53:09Z</time>
      </trkpt>
      <trkpt lat="43.99716" lon="5.14585">
        <ele>258.25</ele>
        <time>2018-10-01T07:53:26Z</time>
      </trkpt>
      <trkpt lat="43.99708" lon="5.14598">
        <ele>257.77</ele>
        <time>2018-10-01T07:53:43Z</time>
      </trkpt>
      <trkpt lat="43.99711" lon="5.14603">
        <ele>255.37</ele>
        <time>2018-10-01T07:53:59Z</time>
      </trkpt>
      <trkpt lat="43.99715" lon="5.14602">
        <ele>253.93</ele>
        <time>2018-10-01T07:54:13Z</time>
      </trkpt>
      <trkpt lat="43.99725" lon="5.14598">
        <ele>253.44</ele>
        <time>2018-10-01T07:54:29Z</time>
      </trkpt>
      <trkpt lat="43.9973" lon="5.14594">
        <ele>250.56</ele>
        <time>2018-10-01T07:54:45Z</time>
      </trkpt>
      <trkpt lat="43.99735" lon="5.14597">
        <ele>248.64</ele>
        <time>2018-10-01T07:55:02Z</time>
      </trkpt>
      <trkpt lat="43.99744" lon="5.14603">
        <ele>245.75</ele>
        <time>2018-10-01T07:55:21Z</time>
      </trkpt>
      <trkpt lat="43.99749" lon="5.14597">
        <ele>243.35</ele>
        <time>2018-10-01T07:55:35Z</time>
      </trkpt>
      <trkpt lat="43.99762" lon="5.14589">
        <ele>240.47</ele>
        <time>2018-10-01T07:55:53Z</time>
      </trkpt>
      <trkpt lat="43.99769" lon="5.14583">
        <ele>238.06</ele>
        <time>2018-10-01T07:56:10Z</time>
      </trkpt>
      <trkpt lat="43.99779" lon="5.14574">
        <ele>236.62</ele>
        <time>2018-10-01T07:56:26Z</time>
      </trkpt>
      <trkpt lat="43.99785" lon="5.14571">
        <ele>233.26</ele>
        <time>2018-10-01T07:56:42Z</time>
      </trkpt>
      <trkpt lat="43.99794" lon="5.14571">
        <ele>231.81</ele>
        <time>2018-10-01T07:56:58Z</time>
      </trkpt>
      <trkpt lat="43.99801" lon="5.1457">
        <ele>228.93</ele>
        <time>2018-10-01T07:57:12Z</time>
      </trkpt>
      <trkpt lat="43.99812" lon="5.14566">
        <ele>226.53</ele>
        <time>2018-10-01T07:57:31Z</time>
      </trkpt>
      <trkpt lat="43.99821" lon="5.14564">
        <ele>223.64</ele>
        <time>2018-10-01T07:57:48Z</time>
      </trkpt>
      <trkpt lat="43.99835" lon="5.14559">
        <ele>220.76</ele>
        <time>2018-10-01T07:58:07Z</time>
      </trkpt>
      <trkpt lat="43.99847" lon="5.14552">
        <ele>219.32</ele>
        <time>2018-10-01T07:58:24Z</time>
      </trkpt>
      <trkpt lat="43.99856" lon="5.14549">
        <ele>216.43</ele>
        <time>2018-10-01T07:58:40Z</time>
      </trkpt>
      <trkpt lat="43.99867" lon="5.14543">
        <ele>213.55</ele>
        <time>2018-10-01T07:59:01Z</time>
      </trkpt>
      <trkpt lat="43.99874" lon="5.14541">
        <ele>210.67</ele>
        <time>2018-10-01T07:59:17Z</time>
      </trkpt>
      <trkpt lat="43.99884" lon="5.1454">
        <ele>208.26</ele>
        <time>2018-10-01T07:59:34Z</time>
      </trkpt>
      <trkpt lat="43.99889" lon="5.14537">
        <ele>207.3</ele>
        <time>2018-10-01T07:59:49Z</time>
      </trkpt>
      <trkpt lat="43.99895" lon="5.14537">
        <ele>203.94</ele>
        <time>2018-10-01T08:00:03Z</time>
      </trkpt>
      <trkpt lat="43.99905" lon="5.14533">
        <ele>202.01</ele>
        <time>2018-10-01T08:00:19Z</time>
      </trkpt>
      <trkpt lat="43.99913" lon="5.14524">
        <ele>199.13</ele>
        <time>2018-10-01T08:00:37Z</time>
      </trkpt>
      <trkpt lat="43.99921" lon="5.14514">
        <ele>196.73</ele>
        <time>2018-10-01T08:00:54Z</time>
      </trkpt>
      <trkpt lat="43.99927" lon="5.14502">
        <ele>194.32</ele>
        <time>2018-10-01T08:01:10Z</time>
      </trkpt>
      <trkpt lat="43.99934" lon="5.14491">
        <ele>192.4</ele>
        <time>2018-10-01T08:01:26Z</time>
      </trkpt>
      <trkpt lat="43.99943" lon="5.14479">
        <ele>190</ele>
        <time>2018-10-01T08:01:45Z</time>
      </trkpt>
      <trkpt lat="43.99954" lon="5.14467">
        <ele>188.08</ele>
        <time>2018-10-01T08:02:04Z</time>
      </trkpt>
      <trkpt lat="43.99965" lon="5.14457">
        <ele>185.67</ele>
        <time>2018-10-01T08:02:21Z</time>
      </trkpt>
      <trkpt lat="43.99975" lon="5.14449">
        <ele>183.27</ele>
        <time>2018-10-01T08:02:37Z</time>
      </trkpt>
      <trkpt lat="43.99989" lon="5.14443">
        <ele>181.35</ele>
        <time>2018-10-01T08:02:55Z</time>
      </trkpt>
      <trkpt lat="44.00003" lon="5.14438">
        <ele>180.38</ele>
        <time>2018-10-01T08:03:10Z</time>
      </trkpt>
      <trkpt lat="44.00019" lon="5.14433">
        <ele>177.98</ele>
        <time>2018-10-01T08:03:29Z</time>
      </trkpt>
      <trkpt lat="44.00031" lon="5.14424">
        <ele>177.02</ele>
        <time>2018-10-01T08:03:45Z</time>
      </trkpt>
      <trkpt lat="44.00032" lon="5.14419">
        <ele>177.02</ele>
        <time>2018-10-01T08:04:01Z</time>
      </trkpt>
      <trkpt lat="44.00028" lon="5.14416">
        <ele>177.02</ele>
        <time>2018-10-01T08:04:15Z</time>
      </trkpt>
      <trkpt lat="44.00019" lon="5.14408">
        <ele>178.94</ele>
        <time>2018-10-01T08:04:30Z</time>
      </trkpt>
      <trkpt lat="44.00014" lon="5.14399">
        <ele>179.42</ele>
        <time>2018-10-01T08:04:46Z</time>
      </trkpt>
      <trkpt lat="44.00014" lon="5.14395">
        <ele>179.9</ele>
        <time>2018-10-01T08:05:14Z</time>
      </trkpt>
      <trkpt lat="44.00014" lon="5.14403">
        <ele>179.9</ele>
        <time>2018-10-01T08:05:33Z</time>
      </trkpt>
      <trkpt lat="44.00015" lon="5.14401">
        <ele>179.42</ele>
        <time>2018-10-01T08:05:54Z</time>
      </trkpt>
      <trkpt lat="44.00008" lon="5.14396">
        <ele>180.87</ele>
        <time>2018-10-01T08:06:10Z</time>
      </trkpt>
      <trkpt lat="43.99996" lon="5.14383">
        <ele>182.31</ele>
        <time>2018-10-01T08:06:28Z</time>
      </trkpt>
      <trkpt lat="43.99983" lon="5.14371">
        <ele>184.23</ele>
        <time>2018-10-01T08:06:47Z</time>
      </trkpt>
      <trkpt lat="43.99969" lon="5.14361">
        <ele>186.15</ele>
        <time>2018-10-01T08:07:07Z</time>
      </trkpt>
      <trkpt lat="43.99955" lon="5.14351">
        <ele>187.59</ele>
        <time>2018-10-01T08:07:27Z</time>
      </trkpt>
      <trkpt lat="43.99938" lon="5.14342">
        <ele>190</ele>
        <time>2018-10-01T08:07:47Z</time>
      </trkpt>
      <trkpt lat="43.99926" lon="5.14336">
        <ele>191.92</ele>
        <time>2018-10-01T08:08:03Z</time>
      </trkpt>
      <trkpt lat="43.99916" lon="5.14325">
        <ele>192.88</ele>
        <time>2018-10-01T08:08:23Z</time>
      </trkpt>
      <trkpt lat="43.99914" lon="5.1432">
        <ele>192.88</ele>
        <time>2018-10-01T08:08:49Z</time>
      </trkpt>
      <trkpt lat="43.99912" lon="5.14321">
        <ele>191.44</ele>
        <time>2018-10-01T08:09:18Z</time>
      </trkpt>
      <trkpt lat="43.99912" lon="5.14321">
        <ele>191.44</ele>
        <time>2018-10-01T08:09:19Z</time>
      </trkpt>
      <trkpt lat="43.99912" lon="5.14321">
        <ele>193.36</ele>
        <time>2018-10-01T08:09:58Z</time>
      </trkpt>
      <trkpt lat="43.99914" lon="5.14321">
        <ele>193.36</ele>
        <time>2018-10-01T08:10:28Z</time>
      </trkpt>
      <trkpt lat="43.99913" lon="5.1432">
        <ele>192.4</ele>
        <time>2018-10-01T08:11:06Z</time>
      </trkpt>
      <trkpt lat="43.99909" lon="5.14314">
        <ele>193.36</ele>
        <time>2018-10-01T08:11:14Z</time>
      </trkpt>
      <trkpt lat="43.99896" lon="5.14304">
        <ele>195.77</ele>
        <time>2018-10-01T08:11:33Z</time>
      </trkpt>
      <trkpt lat="43.99882" lon="5.14296">
        <ele>196.25</ele>
        <time>2018-10-01T08:11:50Z</time>
      </trkpt>
      <trkpt lat="43.99868" lon="5.14287">
        <ele>196.25</ele>
        <time>2018-10-01T08:12:08Z</time>
      </trkpt>
      <trkpt lat="43.99851" lon="5.14276">
        <ele>196.25</ele>
        <time>2018-10-01T08:12:28Z</time>
      </trkpt>
      <trkpt lat="43.99832" lon="5.14268">
        <ele>196.73</ele>
        <time>2018-10-01T08:12:50Z</time>
      </trkpt>
      <trkpt lat="43.99819" lon="5.14259">
        <ele>196.73</ele>
        <time>2018-10-01T08:13:07Z</time>
      </trkpt>
      <trkpt lat="43.99816" lon="5.14257">
        <ele>195.77</ele>
        <time>2018-10-01T08:13:17Z</time>
      </trkpt>
      <trkpt lat="43.99811" lon="5.1425">
        <ele>195.77</ele>
        <time>2018-10-01T08:13:43Z</time>
      </trkpt>
      <trkpt lat="43.99812" lon="5.14239">
        <ele>194.32</ele>
        <time>2018-10-01T08:13:59Z</time>
      </trkpt>
      <trkpt lat="43.99804" lon="5.14236">
        <ele>193.84</ele>
        <time>2018-10-01T08:14:08Z</time>
      </trkpt>
      <trkpt lat="43.99788" lon="5.14223">
        <ele>192.4</ele>
        <time>2018-10-01T08:14:29Z</time>
      </trkpt>
      <trkpt lat="43.99784" lon="5.14204">
        <ele>190.96</ele>
        <time>2018-10-01T08:14:46Z</time>
      </trkpt>
      <trkpt lat="43.99773" lon="5.14183">
        <ele>190.48</ele>
        <time>2018-10-01T08:15:06Z</time>
      </trkpt>
      <trkpt lat="43.99755" lon="5.14173">
        <ele>190.48</ele>
        <time>2018-10-01T08:15:26Z</time>
      </trkpt>
      <trkpt lat="43.99744" lon="5.14159">
        <ele>191.92</ele>
        <time>2018-10-01T08:15:44Z</time>
      </trkpt>
      <trkpt lat="43.99747" lon="5.14151">
        <ele>190.48</ele>
        <time>2018-10-01T08:15:51Z</time>
      </trkpt>
      <trkpt lat="43.99753" lon="5.14124">
        <ele>190.48</ele>
        <time>2018-10-01T08:16:13Z</time>
      </trkpt>
      <trkpt lat="43.99756" lon="5.14111">
        <ele>187.11</ele>
        <time>2018-10-01T08:16:23Z</time>
      </trkpt>
      <trkpt lat="43.9976" lon="5.14094">
        <ele>185.67</ele>
        <time>2018-10-01T08:16:38Z</time>
      </trkpt>
      <trkpt lat="43.99765" lon="5.14076">
        <ele>184.23</ele>
        <time>2018-10-01T08:16:53Z</time>
      </trkpt>
      <trkpt lat="43.99781" lon="5.14064">
        <ele>185.19</ele>
        <time>2018-10-01T08:17:13Z</time>
      </trkpt>
      <trkpt lat="43.99799" lon="5.14063">
        <ele>185.67</ele>
        <time>2018-10-01T08:17:32Z</time>
      </trkpt>
      <trkpt lat="43.99811" lon="5.14069">
        <ele>183.75</ele>
        <time>2018-10-01T08:17:48Z</time>
      </trkpt>
      <trkpt lat="43.99812" lon="5.1407">
        <ele>185.19</ele>
        <time>2018-10-01T08:17:55Z</time>
      </trkpt>
      <trkpt lat="43.99815" lon="5.14071">
        <ele>185.19</ele>
        <time>2018-10-01T08:18:00Z</time>
      </trkpt>
      <trkpt lat="43.9982" lon="5.14074">
        <ele>183.75</ele>
        <time>2018-10-01T08:18:05Z</time>
      </trkpt>
      <trkpt lat="43.99839" lon="5.14081">
        <ele>183.75</ele>
        <time>2018-10-01T08:18:24Z</time>
      </trkpt>
      <trkpt lat="43.99846" lon="5.14082">
        <ele>185.19</ele>
        <time>2018-10-01T08:18:32Z</time>
      </trkpt>
      <trkpt lat="43.99858" lon="5.1407">
        <ele>186.63</ele>
        <time>2018-10-01T08:18:49Z</time>
      </trkpt>
      <trkpt lat="43.99872" lon="5.14062">
        <ele>188.56</ele>
        <time>2018-10-01T08:19:08Z</time>
      </trkpt>
      <trkpt lat="43.9988" lon="5.14053">
        <ele>190</ele>
        <time>2018-10-01T08:19:24Z</time>
      </trkpt>
      <trkpt lat="43.99894" lon="5.14048">
        <ele>192.88</ele>
        <time>2018-10-01T08:19:45Z</time>
      </trkpt>
      <trkpt lat="43.99906" lon="5.14044">
        <ele>194.32</ele>
        <time>2018-10-01T08:20:03Z</time>
      </trkpt>
      <trkpt lat="43.99916" lon="5.14042">
        <ele>195.77</ele>
        <time>2018-10-01T08:20:18Z</time>
      </trkpt>
      <trkpt lat="43.99927" lon="5.1404">
        <ele>197.69</ele>
        <time>2018-10-01T08:20:36Z</time>
      </trkpt>
      <trkpt lat="43.99937" lon="5.1404">
        <ele>200.09</ele>
        <time>2018-10-01T08:20:53Z</time>
      </trkpt>
      <trkpt lat="43.99944" lon="5.14042">
        <ele>201.53</ele>
        <time>2018-10-01T08:21:08Z</time>
      </trkpt>
      <trkpt lat="43.99953" lon="5.14048">
        <ele>203.46</ele>
        <time>2018-10-01T08:21:23Z</time>
      </trkpt>
      <trkpt lat="43.99962" lon="5.14048">
        <ele>206.34</ele>
        <time>2018-10-01T08:21:40Z</time>
      </trkpt>
      <trkpt lat="43.99968" lon="5.14046">
        <ele>208.26</ele>
        <time>2018-10-01T08:21:58Z</time>
      </trkpt>
      <trkpt lat="43.99962" lon="5.14034">
        <ele>210.19</ele>
        <time>2018-10-01T08:22:13Z</time>
      </trkpt>
      <trkpt lat="43.99954" lon="5.14025">
        <ele>211.15</ele>
        <time>2018-10-01T08:22:29Z</time>
      </trkpt>
      <trkpt lat="43.99952" lon="5.14019">
        <ele>213.07</ele>
        <time>2018-10-01T08:22:37Z</time>
      </trkpt>
      <trkpt lat="43.99951" lon="5.14017">
        <ele>212.11</ele>
        <time>2018-10-01T08:22:40Z</time>
      </trkpt>
      <trkpt lat="43.99941" lon="5.14006">
        <ele>212.11</ele>
        <time>2018-10-01T08:22:54Z</time>
      </trkpt>
      <trkpt lat="43.99932" lon="5.13996">
        <ele>213.07</ele>
        <time>2018-10-01T08:23:09Z</time>
      </trkpt>
      <trkpt lat="43.99928" lon="5.13985">
        <ele>213.07</ele>
        <time>2018-10-01T08:23:22Z</time>
      </trkpt>
      <trkpt lat="43.99926" lon="5.13974">
        <ele>214.03</ele>
        <time>2018-10-01T08:23:36Z</time>
      </trkpt>
      <trkpt lat="43.99927" lon="5.13962">
        <ele>214.03</ele>
        <time>2018-10-01T08:23:51Z</time>
      </trkpt>
      <trkpt lat="43.99929" lon="5.13951">
        <ele>216.91</ele>
        <time>2018-10-01T08:24:07Z</time>
      </trkpt>
      <trkpt lat="43.99927" lon="5.13936">
        <ele>217.88</ele>
        <time>2018-10-01T08:24:23Z</time>
      </trkpt>
      <trkpt lat="43.99923" lon="5.1392">
        <ele>218.84</ele>
        <time>2018-10-01T08:24:39Z</time>
      </trkpt>
      <trkpt lat="43.99919" lon="5.13905">
        <ele>221.24</ele>
        <time>2018-10-01T08:24:56Z</time>
      </trkpt>
      <trkpt lat="43.9991" lon="5.1391">
        <ele>222.2</ele>
        <time>2018-10-01T08:25:11Z</time>
      </trkpt>
      <trkpt lat="43.99905" lon="5.13921">
        <ele>223.16</ele>
        <time>2018-10-01T08:25:29Z</time>
      </trkpt>
      <trkpt lat="43.99896" lon="5.1394">
        <ele>223.64</ele>
        <time>2018-10-01T08:25:46Z</time>
      </trkpt>
      <trkpt lat="43.99888" lon="5.1395">
        <ele>225.09</ele>
        <time>2018-10-01T08:26:03Z</time>
      </trkpt>
      <trkpt lat="43.99879" lon="5.13955">
        <ele>227.01</ele>
        <time>2018-10-01T08:26:20Z</time>
      </trkpt>
      <trkpt lat="43.9987" lon="5.13951">
        <ele>228.45</ele>
        <time>2018-10-01T08:26:36Z</time>
      </trkpt>
      <trkpt lat="43.99863" lon="5.13946">
        <ele>229.41</ele>
        <time>2018-10-01T08:26:50Z</time>
      </trkpt>
      <trkpt lat="43.99853" lon="5.13941">
        <ele>230.85</ele>
        <time>2018-10-01T08:27:05Z</time>
      </trkpt>
      <trkpt lat="43.99847" lon="5.13935">
        <ele>232.3</ele>
        <time>2018-10-01T08:27:24Z</time>
      </trkpt>
      <trkpt lat="43.99834" lon="5.13931">
        <ele>233.74</ele>
        <time>2018-10-01T08:27:40Z</time>
      </trkpt>
      <trkpt lat="43.99826" lon="5.13929">
        <ele>235.18</ele>
        <time>2018-10-01T08:27:56Z</time>
      </trkpt>
      <trkpt lat="43.99816" lon="5.13927">
        <ele>236.62</ele>
        <time>2018-10-01T08:28:12Z</time>
      </trkpt>
      <trkpt lat="43.99804" lon="5.13923">
        <ele>238.06</ele>
        <time>2018-10-01T08:28:32Z</time>
      </trkpt>
      <trkpt lat="43.99794" lon="5.13925">
        <ele>239.02</ele>
        <time>2018-10-01T08:28:49Z</time>
      </trkpt>
      <trkpt lat="43.99786" lon="5.13922">
        <ele>240.47</ele>
        <time>2018-10-01T08:29:06Z</time>
      </trkpt>
      <trkpt lat="43.99778" lon="5.13921">
        <ele>242.39</ele>
        <time>2018-10-01T08:29:22Z</time>
      </trkpt>
      <trkpt lat="43.9977" lon="5.13918">
        <ele>244.79</ele>
        <time>2018-10-01T08:29:36Z</time>
      </trkpt>
      <trkpt lat="43.9976" lon="5.13918">
        <ele>246.23</ele>
        <time>2018-10-01T08:29:52Z</time>
      </trkpt>
      <trkpt lat="43.99751" lon="5.13915">
        <ele>247.68</ele>
        <time>2018-10-01T08:30:08Z</time>
      </trkpt>
      <trkpt lat="43.9974" lon="5.1391">
        <ele>250.08</ele>
        <time>2018-10-01T08:30:26Z</time>
      </trkpt>
      <trkpt lat="43.99731" lon="5.13904">
        <ele>250.08</ele>
        <time>2018-10-01T08:30:40Z</time>
      </trkpt>
      <trkpt lat="43.9973" lon="5.13908">
        <ele>251.04</ele>
        <time>2018-10-01T08:31:05Z</time>
      </trkpt>
      <trkpt lat="43.99731" lon="5.13908">
        <ele>251.04</ele>
        <time>2018-10-01T08:31:26Z</time>
      </trkpt>
      <trkpt lat="43.99731" lon="5.13905">
        <ele>251.04</ele>
        <time>2018-10-01T08:31:52Z</time>
      </trkpt>
      <trkpt lat="43.99732" lon="5.13904">
        <ele>251.04</ele>
        <time>2018-10-01T08:32:16Z</time>
      </trkpt>
      <trkpt lat="43.99731" lon="5.13907">
        <ele>250.08</ele>
        <time>2018-10-01T08:32:41Z</time>
      </trkpt>
      <trkpt lat="43.99734" lon="5.13906">
        <ele>250.08</ele>
        <time>2018-10-01T08:33:03Z</time>
      </trkpt>
      <trkpt lat="43.99735" lon="5.13904">
        <ele>250.08</ele>
        <time>2018-10-01T08:33:28Z</time>
      </trkpt>
      <trkpt lat="43.99731" lon="5.13905">
        <ele>250.08</ele>
        <time>2018-10-01T08:33:53Z</time>
      </trkpt>
      <trkpt lat="43.99731" lon="5.13905">
        <ele>251.52</ele>
        <time>2018-10-01T08:34:13Z</time>
      </trkpt>
      <trkpt lat="43.99731" lon="5.13907">
        <ele>250.56</ele>
        <time>2018-10-01T08:34:20Z</time>
      </trkpt>
      <trkpt lat="43.99731" lon="5.13907">
        <ele>252.48</ele>
        <time>2018-10-01T08:34:24Z</time>
      </trkpt>
      <trkpt lat="43.9973" lon="5.13907">
        <ele>250.56</ele>
        <time>2018-10-01T08:34:46Z</time>
      </trkpt>
      <trkpt lat="43.9972" lon="5.13901">
        <ele>252.48</ele>
        <time>2018-10-01T08:35:03Z</time>
      </trkpt>
      <trkpt lat="43.99706" lon="5.13894">
        <ele>253.93</ele>
        <time>2018-10-01T08:35:21Z</time>
      </trkpt>
      <trkpt lat="43.99694" lon="5.13885">
        <ele>255.37</ele>
        <time>2018-10-01T08:35:37Z</time>
      </trkpt>
      <trkpt lat="43.9969" lon="5.13881">
        <ele>256.81</ele>
        <time>2018-10-01T08:35:45Z</time>
      </trkpt>
      <trkpt lat="43.99688" lon="5.1388">
        <ele>256.81</ele>
        <time>2018-10-01T08:36:05Z</time>
      </trkpt>
      <trkpt lat="43.99682" lon="5.13874">
        <ele>256.81</ele>
        <time>2018-10-01T08:36:21Z</time>
      </trkpt>
      <trkpt lat="43.99676" lon="5.13866">
        <ele>257.77</ele>
        <time>2018-10-01T08:36:33Z</time>
      </trkpt>
      <trkpt lat="43.99668" lon="5.1386">
        <ele>258.25</ele>
        <time>2018-10-01T08:36:49Z</time>
      </trkpt>
      <trkpt lat="43.99661" lon="5.13851">
        <ele>259.21</ele>
        <time>2018-10-01T08:37:04Z</time>
      </trkpt>
      <trkpt lat="43.99653" lon="5.13845">
        <ele>260.65</ele>
        <time>2018-10-01T08:37:18Z</time>
      </trkpt>
      <trkpt lat="43.99654" lon="5.13844">
        <ele>259.21</ele>
        <time>2018-10-01T08:37:24Z</time>
      </trkpt>
      <trkpt lat="43.99654" lon="5.13845">
        <ele>259.21</ele>
        <time>2018-10-01T08:37:42Z</time>
      </trkpt>
      <trkpt lat="43.99653" lon="5.13844">
        <ele>260.65</ele>
        <time>2018-10-01T08:37:55Z</time>
      </trkpt>
      <trkpt lat="43.99653" lon="5.13843">
        <ele>260.65</ele>
        <time>2018-10-01T08:38:13Z</time>
      </trkpt>
      <trkpt lat="43.99654" lon="5.13844">
        <ele>259.69</ele>
        <time>2018-10-01T08:38:40Z</time>
      </trkpt>
      <trkpt lat="43.99654" lon="5.13843">
        <ele>259.69</ele>
        <time>2018-10-01T08:39:10Z</time>
      </trkpt>
      <trkpt lat="43.99654" lon="5.13843">
        <ele>261.14</ele>
        <time>2018-10-01T08:39:19Z</time>
      </trkpt>
      <trkpt lat="43.99653" lon="5.13844">
        <ele>259.69</ele>
        <time>2018-10-01T08:39:49Z</time>
      </trkpt>
      <trkpt lat="43.99653" lon="5.13844">
        <ele>260.17</ele>
        <time>2018-10-01T08:40:22Z</time>
      </trkpt>
      <trkpt lat="43.99653" lon="5.13843">
        <ele>260.17</ele>
        <time>2018-10-01T08:40:43Z</time>
      </trkpt>
      <trkpt lat="43.99654" lon="5.13843">
        <ele>262.1</ele>
        <time>2018-10-01T08:41:14Z</time>
      </trkpt>
      <trkpt lat="43.99654" lon="5.13843">
        <ele>260.65</ele>
        <time>2018-10-01T08:41:16Z</time>
      </trkpt>
      <trkpt lat="43.99654" lon="5.13843">
        <ele>259.69</ele>
        <time>2018-10-01T08:41:48Z</time>
      </trkpt>
      <trkpt lat="43.99653" lon="5.13843">
        <ele>261.14</ele>
        <time>2018-10-01T08:42:03Z</time>
      </trkpt>
      <trkpt lat="43.99653" lon="5.13843">
        <ele>260.17</ele>
        <time>2018-10-01T08:42:12Z</time>
      </trkpt>
      <trkpt lat="43.99654" lon="5.13843">
        <ele>261.14</ele>
        <time>2018-10-01T08:42:15Z</time>
      </trkpt>
      <trkpt lat="43.99653" lon="5.13843">
        <ele>260.17</ele>
        <time>2018-10-01T08:42:31Z</time>
      </trkpt>
      <trkpt lat="43.99655" lon="5.13843">
        <ele>260.17</ele>
        <time>2018-10-01T08:42:59Z</time>
      </trkpt>
      <trkpt lat="43.99655" lon="5.13842">
        <ele>260.17</ele>
        <time>2018-10-01T08:43:22Z</time>
      </trkpt>
      <trkpt lat="43.99653" lon="5.13843">
        <ele>261.14</ele>
        <time>2018-10-01T08:43:45Z</time>
      </trkpt>
      <trkpt lat="43.99653" lon="5.13843">
        <ele>259.69</ele>
        <time>2018-10-01T08:44:15Z</time>
      </trkpt>
      <trkpt lat="43.99653" lon="5.13843">
        <ele>259.69</ele>
        <time>2018-10-01T08:44:51Z</time>
      </trkpt>
      <trkpt lat="43.99653" lon="5.13843">
        <ele>261.14</ele>
        <time>2018-10-01T08:44:56Z</time>
      </trkpt>
      <trkpt lat="43.99653" lon="5.13843">
        <ele>259.69</ele>
        <time>2018-10-01T08:45:03Z</time>
      </trkpt>
      <trkpt lat="43.99653" lon="5.13844">
        <ele>260.65</ele>
        <time>2018-10-01T08:45:20Z</time>
      </trkpt>
      <trkpt lat="43.99652" lon="5.13844">
        <ele>260.17</ele>
        <time>2018-10-01T08:45:54Z</time>
      </trkpt>
      <trkpt lat="43.99652" lon="5.13843">
        <ele>259.69</ele>
        <time>2018-10-01T08:46:22Z</time>
      </trkpt>
      <trkpt lat="43.99652" lon="5.13844">
        <ele>259.69</ele>
        <time>2018-10-01T08:46:50Z</time>
      </trkpt>
      <trkpt lat="43.99651" lon="5.13843">
        <ele>259.69</ele>
        <time>2018-10-01T08:47:17Z</time>
      </trkpt>
      <trkpt lat="43.99652" lon="5.13843">
        <ele>259.69</ele>
        <time>2018-10-01T08:47:43Z</time>
      </trkpt>
      <trkpt lat="43.99652" lon="5.13842">
        <ele>259.69</ele>
        <time>2018-10-01T08:48:09Z</time>
      </trkpt>
      <trkpt lat="43.99653" lon="5.1384">
        <ele>259.69</ele>
        <time>2018-10-01T08:48:37Z</time>
      </trkpt>
      <trkpt lat="43.99654" lon="5.1384">
        <ele>261.62</ele>
        <time>2018-10-01T08:49:00Z</time>
      </trkpt>
      <trkpt lat="43.99656" lon="5.13841">
        <ele>260.17</ele>
        <time>2018-10-01T08:49:34Z</time>
      </trkpt>
      <trkpt lat="43.99656" lon="5.13841">
        <ele>261.62</ele>
        <time>2018-10-01T08:49:50Z</time>
      </trkpt>
      <trkpt lat="43.99656" lon="5.13842">
        <ele>260.17</ele>
        <time>2018-10-01T08:49:54Z</time>
      </trkpt>
      <trkpt lat="43.99655" lon="5.13841">
        <ele>261.14</ele>
        <time>2018-10-01T08:50:24Z</time>
      </trkpt>
      <trkpt lat="43.99654" lon="5.13841">
        <ele>260.17</ele>
        <time>2018-10-01T08:50:49Z</time>
      </trkpt>
      <trkpt lat="43.99652" lon="5.1384">
        <ele>259.69</ele>
        <time>2018-10-01T08:51:11Z</time>
      </trkpt>
      <trkpt lat="43.99652" lon="5.13841">
        <ele>260.17</ele>
        <time>2018-10-01T08:51:28Z</time>
      </trkpt>
      <trkpt lat="43.99652" lon="5.13841">
        <ele>261.14</ele>
        <time>2018-10-01T08:51:49Z</time>
      </trkpt>
      <trkpt lat="43.99652" lon="5.13841">
        <ele>261.14</ele>
        <time>2018-10-01T08:51:53Z</time>
      </trkpt>
      <trkpt lat="43.99652" lon="5.13842">
        <ele>261.14</ele>
        <time>2018-10-01T08:52:04Z</time>
      </trkpt>
      <trkpt lat="43.99653" lon="5.13842">
        <ele>261.14</ele>
        <time>2018-10-01T08:52:37Z</time>
      </trkpt>
      <trkpt lat="43.99645" lon="5.13838">
        <ele>261.62</ele>
        <time>2018-10-01T08:52:54Z</time>
      </trkpt>
      <trkpt lat="43.99636" lon="5.13826">
        <ele>263.54</ele>
        <time>2018-10-01T08:53:13Z</time>
      </trkpt>
      <trkpt lat="43.99629" lon="5.13813">
        <ele>263.54</ele>
        <time>2018-10-01T08:53:29Z</time>
      </trkpt>
      <trkpt lat="43.99626" lon="5.138">
        <ele>264.5</ele>
        <time>2018-10-01T08:53:45Z</time>
      </trkpt>
      <trkpt lat="43.99619" lon="5.13791">
        <ele>265.94</ele>
        <time>2018-10-01T08:53:58Z</time>
      </trkpt>
      <trkpt lat="43.99614" lon="5.1378">
        <ele>266.42</ele>
        <time>2018-10-01T08:54:14Z</time>
      </trkpt>
      <trkpt lat="43.99607" lon="5.13765">
        <ele>267.38</ele>
        <time>2018-10-01T08:54:32Z</time>
      </trkpt>
      <trkpt lat="43.99603" lon="5.1375">
        <ele>268.83</ele>
        <time>2018-10-01T08:54:47Z</time>
      </trkpt>
      <trkpt lat="43.99594" lon="5.13736">
        <ele>269.31</ele>
        <time>2018-10-01T08:55:05Z</time>
      </trkpt>
      <trkpt lat="43.99583" lon="5.13721">
        <ele>269.79</ele>
        <time>2018-10-01T08:55:25Z</time>
      </trkpt>
      <trkpt lat="43.99575" lon="5.13709">
        <ele>269.79</ele>
        <time>2018-10-01T08:55:39Z</time>
      </trkpt>
      <trkpt lat="43.99567" lon="5.13698">
        <ele>270.75</ele>
        <time>2018-10-01T08:55:54Z</time>
      </trkpt>
      <trkpt lat="43.99557" lon="5.13684">
        <ele>271.23</ele>
        <time>2018-10-01T08:56:12Z</time>
      </trkpt>
      <trkpt lat="43.99548" lon="5.13669">
        <ele>271.23</ele>
        <time>2018-10-01T08:56:28Z</time>
      </trkpt>
      <trkpt lat="43.99536" lon="5.13651">
        <ele>271.23</ele>
        <time>2018-10-01T08:56:49Z</time>
      </trkpt>
      <trkpt lat="43.99524" lon="5.13633">
        <ele>272.19</ele>
        <time>2018-10-01T08:57:09Z</time>
      </trkpt>
      <trkpt lat="43.99518" lon="5.13624">
        <ele>270.75</ele>
        <time>2018-10-01T08:57:18Z</time>
      </trkpt>
      <trkpt lat="43.99504" lon="5.13604">
        <ele>272.19</ele>
        <time>2018-10-01T08:57:40Z</time>
      </trkpt>
      <trkpt lat="43.99492" lon="5.13585">
        <ele>272.67</ele>
        <time>2018-10-01T08:57:58Z</time>
      </trkpt>
      <trkpt lat="43.99477" lon="5.13563">
        <ele>272.19</ele>
        <time>2018-10-01T08:58:18Z</time>
      </trkpt>
      <trkpt lat="43.99465" lon="5.13546">
        <ele>272.67</ele>
        <time>2018-10-01T08:58:35Z</time>
      </trkpt>
      <trkpt lat="43.99448" lon="5.13526">
        <ele>273.15</ele>
        <time>2018-10-01T08:58:58Z</time>
      </trkpt>
      <trkpt lat="43.99436" lon="5.13502">
        <ele>274.11</ele>
        <time>2018-10-01T08:59:18Z</time>
      </trkpt>
      <trkpt lat="43.99426" lon="5.13476">
        <ele>274.59</ele>
        <time>2018-10-01T08:59:40Z</time>
      </trkpt>
      <trkpt lat="43.99419" lon="5.13454">
        <ele>274.59</ele>
        <time>2018-10-01T08:59:58Z</time>
      </trkpt>
      <trkpt lat="43.99413" lon="5.13431">
        <ele>274.59</ele>
        <time>2018-10-01T09:00:18Z</time>
      </trkpt>
      <trkpt lat="43.99405" lon="5.1341">
        <ele>275.56</ele>
        <time>2018-10-01T09:00:37Z</time>
      </trkpt>
      <trkpt lat="43.99395" lon="5.1339">
        <ele>275.56</ele>
        <time>2018-10-01T09:00:56Z</time>
      </trkpt>
      <trkpt lat="43.99389" lon="5.13367">
        <ele>276.04</ele>
        <time>2018-10-01T09:01:16Z</time>
      </trkpt>
      <trkpt lat="43.99385" lon="5.13344">
        <ele>275.56</ele>
        <time>2018-10-01T09:01:35Z</time>
      </trkpt>
      <trkpt lat="43.99383" lon="5.13326">
        <ele>276.04</ele>
        <time>2018-10-01T09:01:51Z</time>
      </trkpt>
      <trkpt lat="43.9938" lon="5.13303">
        <ele>275.07</ele>
        <time>2018-10-01T09:02:10Z</time>
      </trkpt>
      <trkpt lat="43.99372" lon="5.13285">
        <ele>275.07</ele>
        <time>2018-10-01T09:02:26Z</time>
      </trkpt>
      <trkpt lat="43.99363" lon="5.13268">
        <ele>274.59</ele>
        <time>2018-10-01T09:02:43Z</time>
      </trkpt>
      <trkpt lat="43.99351" lon="5.13259">
        <ele>275.56</ele>
        <time>2018-10-01T09:02:57Z</time>
      </trkpt>
      <trkpt lat="43.99348" lon="5.13259">
        <ele>274.11</ele>
        <time>2018-10-01T09:03:01Z</time>
      </trkpt>
      <trkpt lat="43.99343" lon="5.13256">
        <ele>274.11</ele>
        <time>2018-10-01T09:03:18Z</time>
      </trkpt>
      <trkpt lat="43.99336" lon="5.13252">
        <ele>272.67</ele>
        <time>2018-10-01T09:03:38Z</time>
      </trkpt>
      <trkpt lat="43.99325" lon="5.13244">
        <ele>271.71</ele>
        <time>2018-10-01T09:03:56Z</time>
      </trkpt>
      <trkpt lat="43.99316" lon="5.1324">
        <ele>270.27</ele>
        <time>2018-10-01T09:04:10Z</time>
      </trkpt>
      <trkpt lat="43.99309" lon="5.13238">
        <ele>268.35</ele>
        <time>2018-10-01T09:04:25Z</time>
      </trkpt>
      <trkpt lat="43.993" lon="5.13232">
        <ele>267.38</ele>
        <time>2018-10-01T09:04:40Z</time>
      </trkpt>
      <trkpt lat="43.99287" lon="5.13228">
        <ele>266.42</ele>
        <time>2018-10-01T09:04:55Z</time>
      </trkpt>
      <trkpt lat="43.99274" lon="5.13217">
        <ele>264.02</ele>
        <time>2018-10-01T09:05:14Z</time>
      </trkpt>
      <trkpt lat="43.9927" lon="5.13209">
        <ele>263.54</ele>
        <time>2018-10-01T09:05:21Z</time>
      </trkpt>
      <trkpt lat="43.99261" lon="5.13192">
        <ele>263.06</ele>
        <time>2018-10-01T09:05:38Z</time>
      </trkpt>
      <trkpt lat="43.99252" lon="5.13183">
        <ele>263.06</ele>
        <time>2018-10-01T09:05:53Z</time>
      </trkpt>
      <trkpt lat="43.99246" lon="5.13177">
        <ele>263.54</ele>
        <time>2018-10-01T09:06:00Z</time>
      </trkpt>
      <trkpt lat="43.99239" lon="5.13163">
        <ele>260.65</ele>
        <time>2018-10-01T09:06:17Z</time>
      </trkpt>
      <trkpt lat="43.99233" lon="5.13161">
        <ele>260.17</ele>
        <time>2018-10-01T09:06:26Z</time>
      </trkpt>
      <trkpt lat="43.99227" lon="5.13159">
        <ele>258.73</ele>
        <time>2018-10-01T09:06:38Z</time>
      </trkpt>
      <trkpt lat="43.99218" lon="5.1315">
        <ele>256.33</ele>
        <time>2018-10-01T09:06:54Z</time>
      </trkpt>
      <trkpt lat="43.99204" lon="5.1315">
        <ele>254.89</ele>
        <time>2018-10-01T09:07:14Z</time>
      </trkpt>
      <trkpt lat="43.99189" lon="5.13149">
        <ele>254.89</ele>
        <time>2018-10-01T09:07:33Z</time>
      </trkpt>
      <trkpt lat="43.99181" lon="5.13138">
        <ele>254.41</ele>
        <time>2018-10-01T09:07:51Z</time>
      </trkpt>
      <trkpt lat="43.99174" lon="5.13121">
        <ele>255.37</ele>
        <time>2018-10-01T09:08:08Z</time>
      </trkpt>
      <trkpt lat="43.99158" lon="5.13115">
        <ele>256.33</ele>
        <time>2018-10-01T09:08:26Z</time>
      </trkpt>
      <trkpt lat="43.9914" lon="5.13115">
        <ele>257.29</ele>
        <time>2018-10-01T09:08:44Z</time>
      </trkpt>
      <trkpt lat="43.99125" lon="5.13109">
        <ele>259.21</ele>
        <time>2018-10-01T09:09:04Z</time>
      </trkpt>
      <trkpt lat="43.99112" lon="5.13103">
        <ele>259.69</ele>
        <time>2018-10-01T09:09:23Z</time>
      </trkpt>
      <trkpt lat="43.99099" lon="5.13094">
        <ele>260.65</ele>
        <time>2018-10-01T09:09:39Z</time>
      </trkpt>
      <trkpt lat="43.99081" lon="5.13091">
        <ele>261.14</ele>
        <time>2018-10-01T09:09:57Z</time>
      </trkpt>
      <trkpt lat="43.99064" lon="5.13092">
        <ele>263.54</ele>
        <time>2018-10-01T09:10:15Z</time>
      </trkpt>
      <trkpt lat="43.99049" lon="5.13087">
        <ele>264.5</ele>
        <time>2018-10-01T09:10:34Z</time>
      </trkpt>
      <trkpt lat="43.99037" lon="5.13079">
        <ele>266.42</ele>
        <time>2018-10-01T09:10:52Z</time>
      </trkpt>
      <trkpt lat="43.9903" lon="5.13071">
        <ele>267.86</ele>
        <time>2018-10-01T09:11:06Z</time>
      </trkpt>
      <trkpt lat="43.99027" lon="5.13069">
        <ele>265.94</ele>
        <time>2018-10-01T09:11:10Z</time>
      </trkpt>
      <trkpt lat="43.99026" lon="5.13069">
        <ele>267.86</ele>
        <time>2018-10-01T09:11:12Z</time>
      </trkpt>
      <trkpt lat="43.99014" lon="5.13064">
        <ele>269.79</ele>
        <time>2018-10-01T09:11:29Z</time>
      </trkpt>
      <trkpt lat="43.99006" lon="5.13053">
        <ele>271.23</ele>
        <time>2018-10-01T09:11:46Z</time>
      </trkpt>
      <trkpt lat="43.98997" lon="5.13048">
        <ele>273.15</ele>
        <time>2018-10-01T09:12:01Z</time>
      </trkpt>
      <trkpt lat="43.98985" lon="5.13049">
        <ele>275.56</ele>
        <time>2018-10-01T09:12:18Z</time>
      </trkpt>
      <trkpt lat="43.98976" lon="5.13047">
        <ele>277.48</ele>
        <time>2018-10-01T09:12:33Z</time>
      </trkpt>
      <trkpt lat="43.98968" lon="5.13042">
        <ele>279.4</ele>
        <time>2018-10-01T09:12:49Z</time>
      </trkpt>
      <trkpt lat="43.98968" lon="5.13032">
        <ele>280.84</ele>
        <time>2018-10-01T09:13:05Z</time>
      </trkpt>
      <trkpt lat="43.98967" lon="5.13023">
        <ele>282.28</ele>
        <time>2018-10-01T09:13:19Z</time>
      </trkpt>
      <trkpt lat="43.98964" lon="5.13003">
        <ele>283.73</ele>
        <time>2018-10-01T09:13:36Z</time>
      </trkpt>
      <trkpt lat="43.98962" lon="5.12983">
        <ele>284.21</ele>
        <time>2018-10-01T09:13:54Z</time>
      </trkpt>
      <trkpt lat="43.98964" lon="5.12959">
        <ele>284.69</ele>
        <time>2018-10-01T09:14:13Z</time>
      </trkpt>
      <trkpt lat="43.98952" lon="5.12943">
        <ele>284.69</ele>
        <time>2018-10-01T09:14:32Z</time>
      </trkpt>
      <trkpt lat="43.98951" lon="5.12939">
        <ele>283.25</ele>
        <time>2018-10-01T09:14:36Z</time>
      </trkpt>
      <trkpt lat="43.98945" lon="5.12924">
        <ele>282.77</ele>
        <time>2018-10-01T09:14:53Z</time>
      </trkpt>
      <trkpt lat="43.98938" lon="5.12911">
        <ele>281.32</ele>
        <time>2018-10-01T09:15:09Z</time>
      </trkpt>
      <trkpt lat="43.98931" lon="5.12892">
        <ele>280.84</ele>
        <time>2018-10-01T09:15:27Z</time>
      </trkpt>
      <trkpt lat="43.98927" lon="5.12876">
        <ele>282.28</ele>
        <time>2018-10-01T09:15:43Z</time>
      </trkpt>
      <trkpt lat="43.98921" lon="5.12853">
        <ele>282.28</ele>
        <time>2018-10-01T09:16:02Z</time>
      </trkpt>
      <trkpt lat="43.9892" lon="5.12846">
        <ele>280.36</ele>
        <time>2018-10-01T09:16:09Z</time>
      </trkpt>
      <trkpt lat="43.98913" lon="5.12833">
        <ele>279.4</ele>
        <time>2018-10-01T09:16:26Z</time>
      </trkpt>
      <trkpt lat="43.98908" lon="5.12826">
        <ele>277.48</ele>
        <time>2018-10-01T09:16:40Z</time>
      </trkpt>
      <trkpt lat="43.989" lon="5.12817">
        <ele>275.07</ele>
        <time>2018-10-01T09:16:56Z</time>
      </trkpt>
      <trkpt lat="43.98892" lon="5.12803">
        <ele>273.15</ele>
        <time>2018-10-01T09:17:13Z</time>
      </trkpt>
      <trkpt lat="43.98889" lon="5.12785">
        <ele>272.19</ele>
        <time>2018-10-01T09:17:30Z</time>
      </trkpt>
      <trkpt lat="43.98885" lon="5.12764">
        <ele>270.27</ele>
        <time>2018-10-01T09:17:46Z</time>
      </trkpt>
      <trkpt lat="43.98876" lon="5.12737">
        <ele>269.79</ele>
        <time>2018-10-01T09:18:04Z</time>
      </trkpt>
      <trkpt lat="43.98876" lon="5.12711">
        <ele>270.75</ele>
        <time>2018-10-01T09:18:23Z</time>
      </trkpt>
      <trkpt lat="43.98875" lon="5.12683">
        <ele>271.71</ele>
        <time>2018-10-01T09:18:44Z</time>
      </trkpt>
      <trkpt lat="43.98875" lon="5.12659">
        <ele>273.15</ele>
        <time>2018-10-01T09:19:01Z</time>
      </trkpt>
      <trkpt lat="43.98885" lon="5.12647">
        <ele>275.07</ele>
        <time>2018-10-01T09:19:15Z</time>
      </trkpt>
      <trkpt lat="43.98894" lon="5.12635">
        <ele>275.56</ele>
        <time>2018-10-01T09:19:30Z</time>
      </trkpt>
      <trkpt lat="43.98902" lon="5.12621">
        <ele>277.48</ele>
        <time>2018-10-01T09:19:46Z</time>
      </trkpt>
      <trkpt lat="43.98904" lon="5.12603">
        <ele>278.92</ele>
        <time>2018-10-01T09:20:02Z</time>
      </trkpt>
      <trkpt lat="43.98905" lon="5.12585">
        <ele>280.84</ele>
        <time>2018-10-01T09:20:18Z</time>
      </trkpt>
      <trkpt lat="43.98906" lon="5.12563">
        <ele>282.77</ele>
        <time>2018-10-01T09:20:36Z</time>
      </trkpt>
      <trkpt lat="43.98907" lon="5.12547">
        <ele>285.17</ele>
        <time>2018-10-01T09:20:50Z</time>
      </trkpt>
      <trkpt lat="43.98906" lon="5.12528">
        <ele>287.09</ele>
        <time>2018-10-01T09:21:08Z</time>
      </trkpt>
      <trkpt lat="43.98909" lon="5.12508">
        <ele>288.05</ele>
        <time>2018-10-01T09:21:27Z</time>
      </trkpt>
      <trkpt lat="43.9891" lon="5.12507">
        <ele>288.05</ele>
        <time>2018-10-01T09:21:28Z</time>
      </trkpt>
      <trkpt lat="43.98902" lon="5.12487">
        <ele>289.01</ele>
        <time>2018-10-01T09:21:47Z</time>
      </trkpt>
      <trkpt lat="43.98899" lon="5.12484">
        <ele>288.05</ele>
        <time>2018-10-01T09:21:50Z</time>
      </trkpt>
      <trkpt lat="43.98883" lon="5.12465">
        <ele>286.61</ele>
        <time>2018-10-01T09:22:12Z</time>
      </trkpt>
      <trkpt lat="43.98879" lon="5.12461">
        <ele>284.69</ele>
        <time>2018-10-01T09:22:17Z</time>
      </trkpt>
      <trkpt lat="43.98876" lon="5.12457">
        <ele>287.09</ele>
        <time>2018-10-01T09:22:21Z</time>
      </trkpt>
      <trkpt lat="43.9887" lon="5.1245">
        <ele>285.65</ele>
        <time>2018-10-01T09:22:28Z</time>
      </trkpt>
      <trkpt lat="43.98856" lon="5.12429">
        <ele>285.17</ele>
        <time>2018-10-01T09:22:48Z</time>
      </trkpt>
      <trkpt lat="43.98851" lon="5.12421">
        <ele>285.65</ele>
        <time>2018-10-01T09:22:55Z</time>
      </trkpt>
      <trkpt lat="43.98833" lon="5.12394">
        <ele>287.09</ele>
        <time>2018-10-01T09:23:18Z</time>
      </trkpt>
      <trkpt lat="43.9882" lon="5.1237">
        <ele>286.61</ele>
        <time>2018-10-01T09:23:40Z</time>
      </trkpt>
      <trkpt lat="43.98819" lon="5.12365">
        <ele>286.61</ele>
        <time>2018-10-01T09:24:00Z</time>
      </trkpt>
      <trkpt lat="43.98819" lon="5.12365">
        <ele>286.61</ele>
        <time>2018-10-01T09:24:01Z</time>
      </trkpt>
      <trkpt lat="43.98819" lon="5.12365">
        <ele>287.57</ele>
        <time>2018-10-01T09:24:09Z</time>
      </trkpt>
      <trkpt lat="43.98814" lon="5.12362">
        <ele>287.09</ele>
        <time>2018-10-01T09:24:35Z</time>
      </trkpt>
      <trkpt lat="43.98811" lon="5.12359">
        <ele>287.57</ele>
        <time>2018-10-01T09:24:56Z</time>
      </trkpt>
      <trkpt lat="43.98805" lon="5.12344">
        <ele>285.65</ele>
        <time>2018-10-01T09:25:12Z</time>
      </trkpt>
      <trkpt lat="43.98796" lon="5.12316">
        <ele>285.17</ele>
        <time>2018-10-01T09:25:34Z</time>
      </trkpt>
      <trkpt lat="43.98792" lon="5.12302">
        <ele>287.09</ele>
        <time>2018-10-01T09:25:45Z</time>
      </trkpt>
      <trkpt lat="43.98786" lon="5.12286">
        <ele>283.73</ele>
        <time>2018-10-01T09:25:57Z</time>
      </trkpt>
      <trkpt lat="43.98778" lon="5.12258">
        <ele>286.61</ele>
        <time>2018-10-01T09:26:17Z</time>
      </trkpt>
      <trkpt lat="43.98778" lon="5.12255">
        <ele>285.65</ele>
        <time>2018-10-01T09:26:19Z</time>
      </trkpt>
      <trkpt lat="43.98777" lon="5.12252">
        <ele>285.65</ele>
        <time>2018-10-01T09:26:21Z</time>
      </trkpt>
      <trkpt lat="43.98775" lon="5.12236">
        <ele>287.09</ele>
        <time>2018-10-01T09:26:31Z</time>
      </trkpt>
      <trkpt lat="43.9877" lon="5.1221">
        <ele>288.05</ele>
        <time>2018-10-01T09:26:51Z</time>
      </trkpt>
      <trkpt lat="43.98766" lon="5.12184">
        <ele>288.05</ele>
        <time>2018-10-01T09:27:10Z</time>
      </trkpt>
      <trkpt lat="43.98763" lon="5.12175">
        <ele>288.05</ele>
        <time>2018-10-01T09:27:17Z</time>
      </trkpt>
      <trkpt lat="43.98755" lon="5.12149">
        <ele>286.61</ele>
        <time>2018-10-01T09:27:37Z</time>
      </trkpt>
      <trkpt lat="43.98749" lon="5.12128">
        <ele>284.69</ele>
        <time>2018-10-01T09:27:54Z</time>
      </trkpt>
      <trkpt lat="43.98745" lon="5.12112">
        <ele>282.28</ele>
        <time>2018-10-01T09:28:15Z</time>
      </trkpt>
      <trkpt lat="43.98744" lon="5.12104">
        <ele>279.88</ele>
        <time>2018-10-01T09:28:34Z</time>
      </trkpt>
      <trkpt lat="43.98739" lon="5.12098">
        <ele>278.92</ele>
        <time>2018-10-01T09:28:53Z</time>
      </trkpt>
      <trkpt lat="43.98731" lon="5.12095">
        <ele>279.88</ele>
        <time>2018-10-01T09:29:29Z</time>
      </trkpt>
      <trkpt lat="43.98731" lon="5.12096">
        <ele>278.44</ele>
        <time>2018-10-01T09:29:46Z</time>
      </trkpt>
      <trkpt lat="43.9872" lon="5.12101">
        <ele>277.96</ele>
        <time>2018-10-01T09:30:02Z</time>
      </trkpt>
      <trkpt lat="43.98703" lon="5.12109">
        <ele>277.96</ele>
        <time>2018-10-01T09:30:20Z</time>
      </trkpt>
      <trkpt lat="43.98687" lon="5.12114">
        <ele>277.48</ele>
        <time>2018-10-01T09:30:39Z</time>
      </trkpt>
      <trkpt lat="43.98667" lon="5.12114">
        <ele>277.48</ele>
        <time>2018-10-01T09:31:02Z</time>
      </trkpt>
      <trkpt lat="43.98663" lon="5.12113">
        <ele>278.92</ele>
        <time>2018-10-01T09:31:05Z</time>
      </trkpt>
      <trkpt lat="43.98658" lon="5.12112">
        <ele>279.4</ele>
        <time>2018-10-01T09:31:10Z</time>
      </trkpt>
      <trkpt lat="43.98637" lon="5.12114">
        <ele>279.4</ele>
        <time>2018-10-01T09:31:29Z</time>
      </trkpt>
      <trkpt lat="43.98625" lon="5.12118">
        <ele>278.44</ele>
        <time>2018-10-01T09:31:44Z</time>
      </trkpt>
      <trkpt lat="43.98625" lon="5.12117">
        <ele>281.32</ele>
        <time>2018-10-01T09:31:46Z</time>
      </trkpt>
      <trkpt lat="43.98625" lon="5.12117">
        <ele>281.32</ele>
        <time>2018-10-01T09:31:47Z</time>
      </trkpt>
      <trkpt lat="43.98624" lon="5.12116">
        <ele>280.84</ele>
        <time>2018-10-01T09:31:51Z</time>
      </trkpt>
      <trkpt lat="43.98623" lon="5.12114">
        <ele>277.96</ele>
        <time>2018-10-01T09:31:56Z</time>
      </trkpt>
      <trkpt lat="43.98621" lon="5.12112">
        <ele>279.4</ele>
        <time>2018-10-01T09:32:02Z</time>
      </trkpt>
      <trkpt lat="43.98621" lon="5.12109">
        <ele>277.96</ele>
        <time>2018-10-01T09:32:06Z</time>
      </trkpt>
      <trkpt lat="43.98615" lon="5.12098">
        <ele>277.48</ele>
        <time>2018-10-01T09:32:19Z</time>
      </trkpt>
      <trkpt lat="43.98612" lon="5.12098">
        <ele>277.48</ele>
        <time>2018-10-01T09:32:45Z</time>
      </trkpt>
      <trkpt lat="43.98613" lon="5.12098">
        <ele>277.48</ele>
        <time>2018-10-01T09:33:09Z</time>
      </trkpt>
      <trkpt lat="43.98613" lon="5.12098">
        <ele>278.92</ele>
        <time>2018-10-01T09:33:11Z</time>
      </trkpt>
      <trkpt lat="43.98614" lon="5.121">
        <ele>279.4</ele>
        <time>2018-10-01T09:33:19Z</time>
      </trkpt>
      <trkpt lat="43.98615" lon="5.12102">
        <ele>279.88</ele>
        <time>2018-10-01T09:33:28Z</time>
      </trkpt>
      <trkpt lat="43.98616" lon="5.12101">
        <ele>276.52</ele>
        <time>2018-10-01T09:33:33Z</time>
      </trkpt>
      <trkpt lat="43.98616" lon="5.12101">
        <ele>278.44</ele>
        <time>2018-10-01T09:33:36Z</time>
      </trkpt>
      <trkpt lat="43.98616" lon="5.12101">
        <ele>277</ele>
        <time>2018-10-01T09:33:43Z</time>
      </trkpt>
      <trkpt lat="43.98616" lon="5.12099">
        <ele>278.92</ele>
        <time>2018-10-01T09:33:51Z</time>
      </trkpt>
      <trkpt lat="43.98615" lon="5.121">
        <ele>277.96</ele>
        <time>2018-10-01T09:33:59Z</time>
      </trkpt>
      <trkpt lat="43.98615" lon="5.12099">
        <ele>278.92</ele>
        <time>2018-10-01T09:34:13Z</time>
      </trkpt>
      <trkpt lat="43.98615" lon="5.12098">
        <ele>277.48</ele>
        <time>2018-10-01T09:34:47Z</time>
      </trkpt>
      <trkpt lat="43.98614" lon="5.12098">
        <ele>277.96</ele>
        <time>2018-10-01T09:34:58Z</time>
      </trkpt>
      <trkpt lat="43.98614" lon="5.12099">
        <ele>277.96</ele>
        <time>2018-10-01T09:35:07Z</time>
      </trkpt>
      <trkpt lat="43.98616" lon="5.12106">
        <ele>278.44</ele>
        <time>2018-10-01T09:35:20Z</time>
      </trkpt>
      <trkpt lat="43.98621" lon="5.12111">
        <ele>278.92</ele>
        <time>2018-10-01T09:35:37Z</time>
      </trkpt>
      <trkpt lat="43.98623" lon="5.12119">
        <ele>280.84</ele>
        <time>2018-10-01T09:35:51Z</time>
      </trkpt>
      <trkpt lat="43.98614" lon="5.12134">
        <ele>280.84</ele>
        <time>2018-10-01T09:36:08Z</time>
      </trkpt>
      <trkpt lat="43.98611" lon="5.12143">
        <ele>281.32</ele>
        <time>2018-10-01T09:36:23Z</time>
      </trkpt>
      <trkpt lat="43.98615" lon="5.12145">
        <ele>281.32</ele>
        <time>2018-10-01T09:36:46Z</time>
      </trkpt>
      <trkpt lat="43.98613" lon="5.12144">
        <ele>280.36</ele>
        <time>2018-10-01T09:36:58Z</time>
      </trkpt>
      <trkpt lat="43.98617" lon="5.12144">
        <ele>280.36</ele>
        <time>2018-10-01T09:37:26Z</time>
      </trkpt>
      <trkpt lat="43.98616" lon="5.12144">
        <ele>281.32</ele>
        <time>2018-10-01T09:37:42Z</time>
      </trkpt>
      <trkpt lat="43.98616" lon="5.12142">
        <ele>280.36</ele>
        <time>2018-10-01T09:38:13Z</time>
      </trkpt>
      <trkpt lat="43.98617" lon="5.12142">
        <ele>281.8</ele>
        <time>2018-10-01T09:38:32Z</time>
      </trkpt>
      <trkpt lat="43.98618" lon="5.12145">
        <ele>282.28</ele>
        <time>2018-10-01T09:39:08Z</time>
      </trkpt>
      <trkpt lat="43.98616" lon="5.12148">
        <ele>281.32</ele>
        <time>2018-10-01T09:39:36Z</time>
      </trkpt>
      <trkpt lat="43.98616" lon="5.12147">
        <ele>282.77</ele>
        <time>2018-10-01T09:39:40Z</time>
      </trkpt>
      <trkpt lat="43.98615" lon="5.12147">
        <ele>281.32</ele>
        <time>2018-10-01T09:39:43Z</time>
      </trkpt>
      <trkpt lat="43.98614" lon="5.12146">
        <ele>280.36</ele>
        <time>2018-10-01T09:40:05Z</time>
      </trkpt>
      <trkpt lat="43.98613" lon="5.12147">
        <ele>281.8</ele>
        <time>2018-10-01T09:40:26Z</time>
      </trkpt>
      <trkpt lat="43.98614" lon="5.12148">
        <ele>281.8</ele>
        <time>2018-10-01T09:40:44Z</time>
      </trkpt>
      <trkpt lat="43.98613" lon="5.1215">
        <ele>281.8</ele>
        <time>2018-10-01T09:41:00Z</time>
      </trkpt>
      <trkpt lat="43.98614" lon="5.1215">
        <ele>281.8</ele>
        <time>2018-10-01T09:41:14Z</time>
      </trkpt>
      <trkpt lat="43.98615" lon="5.12147">
        <ele>282.77</ele>
        <time>2018-10-01T09:41:40Z</time>
      </trkpt>
      <trkpt lat="43.98611" lon="5.12155">
        <ele>281.8</ele>
        <time>2018-10-01T09:41:59Z</time>
      </trkpt>
      <trkpt lat="43.98603" lon="5.12177">
        <ele>282.28</ele>
        <time>2018-10-01T09:42:18Z</time>
      </trkpt>
      <trkpt lat="43.98602" lon="5.12196">
        <ele>282.28</ele>
        <time>2018-10-01T09:42:33Z</time>
      </trkpt>
      <trkpt lat="43.98599" lon="5.12222">
        <ele>282.28</ele>
        <time>2018-10-01T09:42:51Z</time>
      </trkpt>
      <trkpt lat="43.98593" lon="5.12241">
        <ele>283.25</ele>
        <time>2018-10-01T09:43:08Z</time>
      </trkpt>
      <trkpt lat="43.98585" lon="5.12264">
        <ele>282.28</ele>
        <time>2018-10-01T09:43:28Z</time>
      </trkpt>
      <trkpt lat="43.9858" lon="5.12292">
        <ele>281.8</ele>
        <time>2018-10-01T09:43:48Z</time>
      </trkpt>
      <trkpt lat="43.98579" lon="5.12298">
        <ele>282.77</ele>
        <time>2018-10-01T09:43:52Z</time>
      </trkpt>
      <trkpt lat="43.98578" lon="5.12306">
        <ele>282.77</ele>
        <time>2018-10-01T09:43:57Z</time>
      </trkpt>
      <trkpt lat="43.98571" lon="5.12326">
        <ele>281.32</ele>
        <time>2018-10-01T09:44:12Z</time>
      </trkpt>
      <trkpt lat="43.98561" lon="5.12347">
        <ele>282.77</ele>
        <time>2018-10-01T09:44:31Z</time>
      </trkpt>
      <trkpt lat="43.98553" lon="5.12358">
        <ele>280.84</ele>
        <time>2018-10-01T09:44:41Z</time>
      </trkpt>
      <trkpt lat="43.98543" lon="5.12375">
        <ele>281.8</ele>
        <time>2018-10-01T09:44:56Z</time>
      </trkpt>
      <trkpt lat="43.98532" lon="5.12397">
        <ele>280.84</ele>
        <time>2018-10-01T09:45:16Z</time>
      </trkpt>
      <trkpt lat="43.9853" lon="5.12401">
        <ele>282.77</ele>
        <time>2018-10-01T09:45:19Z</time>
      </trkpt>
      <trkpt lat="43.98525" lon="5.12413">
        <ele>279.88</ele>
        <time>2018-10-01T09:45:27Z</time>
      </trkpt>
      <trkpt lat="43.98524" lon="5.12422">
        <ele>281.32</ele>
        <time>2018-10-01T09:45:33Z</time>
      </trkpt>
      <trkpt lat="43.98522" lon="5.12431">
        <ele>281.8</ele>
        <time>2018-10-01T09:45:47Z</time>
      </trkpt>
      <trkpt lat="43.98521" lon="5.12432">
        <ele>280.36</ele>
        <time>2018-10-01T09:45:50Z</time>
      </trkpt>
      <trkpt lat="43.98522" lon="5.12433">
        <ele>281.32</ele>
        <time>2018-10-01T09:46:02Z</time>
      </trkpt>
      <trkpt lat="43.98522" lon="5.12432">
        <ele>279.88</ele>
        <time>2018-10-01T09:46:05Z</time>
      </trkpt>
      <trkpt lat="43.98522" lon="5.12432">
        <ele>281.32</ele>
        <time>2018-10-01T09:46:10Z</time>
      </trkpt>
      <trkpt lat="43.98522" lon="5.12432">
        <ele>278.92</ele>
        <time>2018-10-01T09:46:16Z</time>
      </trkpt>
      <trkpt lat="43.98522" lon="5.12432">
        <ele>281.32</ele>
        <time>2018-10-01T09:46:19Z</time>
      </trkpt>
      <trkpt lat="43.98522" lon="5.1243">
        <ele>280.36</ele>
        <time>2018-10-01T09:46:34Z</time>
      </trkpt>
      <trkpt lat="43.98524" lon="5.12429">
        <ele>282.28</ele>
        <time>2018-10-01T09:46:55Z</time>
      </trkpt>
      <trkpt lat="43.98524" lon="5.12429">
        <ele>287.09</ele>
        <time>2018-10-01T09:46:58Z</time>
      </trkpt>
      <trkpt lat="43.98525" lon="5.12429">
        <ele>283.73</ele>
        <time>2018-10-01T09:46:59Z</time>
      </trkpt>
      <trkpt lat="43.98526" lon="5.1243">
        <ele>281.8</ele>
        <time>2018-10-01T09:47:01Z</time>
      </trkpt>
      <trkpt lat="43.98529" lon="5.12433">
        <ele>284.21</ele>
        <time>2018-10-01T09:47:05Z</time>
      </trkpt>
      <trkpt lat="43.98529" lon="5.12436">
        <ele>282.77</ele>
        <time>2018-10-01T09:47:07Z</time>
      </trkpt>
      <trkpt lat="43.98534" lon="5.12457">
        <ele>280.84</ele>
        <time>2018-10-01T09:47:24Z</time>
      </trkpt>
      <trkpt lat="43.98534" lon="5.12458">
        <ele>280.84</ele>
        <time>2018-10-01T09:47:25Z</time>
      </trkpt>
      <trkpt lat="43.98538" lon="5.12469">
        <ele>281.8</ele>
        <time>2018-10-01T09:47:34Z</time>
      </trkpt>
      <trkpt lat="43.98546" lon="5.12485">
        <ele>279.88</ele>
        <time>2018-10-01T09:47:50Z</time>
      </trkpt>
      <trkpt lat="43.98543" lon="5.12503">
        <ele>277.96</ele>
        <time>2018-10-01T09:48:07Z</time>
      </trkpt>
      <trkpt lat="43.9853" lon="5.12512">
        <ele>277</ele>
        <time>2018-10-01T09:48:23Z</time>
      </trkpt>
      <trkpt lat="43.98512" lon="5.12512">
        <ele>276.04</ele>
        <time>2018-10-01T09:48:43Z</time>
      </trkpt>
      <trkpt lat="43.98508" lon="5.1251">
        <ele>276.04</ele>
        <time>2018-10-01T09:48:47Z</time>
      </trkpt>
      <trkpt lat="43.98497" lon="5.12509">
        <ele>276.04</ele>
        <time>2018-10-01T09:48:56Z</time>
      </trkpt>
      <trkpt lat="43.9848" lon="5.12515">
        <ele>275.56</ele>
        <time>2018-10-01T09:49:13Z</time>
      </trkpt>
      <trkpt lat="43.9847" lon="5.12543">
        <ele>275.56</ele>
        <time>2018-10-01T09:49:36Z</time>
      </trkpt>
      <trkpt lat="43.98467" lon="5.12554">
        <ele>275.56</ele>
        <time>2018-10-01T09:49:52Z</time>
      </trkpt>
      <trkpt lat="43.98458" lon="5.12571">
        <ele>274.11</ele>
        <time>2018-10-01T09:50:09Z</time>
      </trkpt>
      <trkpt lat="43.98457" lon="5.1259">
        <ele>272.67</ele>
        <time>2018-10-01T09:50:25Z</time>
      </trkpt>
      <trkpt lat="43.98448" lon="5.12606">
        <ele>271.71</ele>
        <time>2018-10-01T09:50:43Z</time>
      </trkpt>
      <trkpt lat="43.98444" lon="5.12621">
        <ele>270.27</ele>
        <time>2018-10-01T09:50:58Z</time>
      </trkpt>
      <trkpt lat="43.98441" lon="5.12641">
        <ele>269.31</ele>
        <time>2018-10-01T09:51:14Z</time>
      </trkpt>
      <trkpt lat="43.98433" lon="5.12652">
        <ele>268.35</ele>
        <time>2018-10-01T09:51:27Z</time>
      </trkpt>
      <trkpt lat="43.9842" lon="5.1267">
        <ele>267.86</ele>
        <time>2018-10-01T09:51:43Z</time>
      </trkpt>
      <trkpt lat="43.98413" lon="5.12697">
        <ele>267.86</ele>
        <time>2018-10-01T09:52:03Z</time>
      </trkpt>
      <trkpt lat="43.9841" lon="5.12718">
        <ele>268.83</ele>
        <time>2018-10-01T09:52:20Z</time>
      </trkpt>
      <trkpt lat="43.9841" lon="5.12719">
        <ele>268.83</ele>
        <time>2018-10-01T09:52:21Z</time>
      </trkpt>
      <trkpt lat="43.98418" lon="5.12739">
        <ele>266.9</ele>
        <time>2018-10-01T09:52:39Z</time>
      </trkpt>
      <trkpt lat="43.98429" lon="5.12757">
        <ele>266.42</ele>
        <time>2018-10-01T09:52:57Z</time>
      </trkpt>
      <trkpt lat="43.9844" lon="5.12777">
        <ele>264.98</ele>
        <time>2018-10-01T09:53:16Z</time>
      </trkpt>
      <trkpt lat="43.98448" lon="5.12799">
        <ele>263.06</ele>
        <time>2018-10-01T09:53:33Z</time>
      </trkpt>
      <trkpt lat="43.98449" lon="5.12802">
        <ele>265.94</ele>
        <time>2018-10-01T09:53:40Z</time>
      </trkpt>
      <trkpt lat="43.98448" lon="5.12802">
        <ele>264.98</ele>
        <time>2018-10-01T09:54:08Z</time>
      </trkpt>
      <trkpt lat="43.98446" lon="5.12808">
        <ele>264.98</ele>
        <time>2018-10-01T09:54:39Z</time>
      </trkpt>
      <trkpt lat="43.9844" lon="5.12821">
        <ele>264.98</ele>
        <time>2018-10-01T09:54:55Z</time>
      </trkpt>
      <trkpt lat="43.98422" lon="5.12832">
        <ele>265.46</ele>
        <time>2018-10-01T09:55:17Z</time>
      </trkpt>
      <trkpt lat="43.98415" lon="5.12836">
        <ele>266.42</ele>
        <time>2018-10-01T09:55:25Z</time>
      </trkpt>
      <trkpt lat="43.98408" lon="5.1285">
        <ele>267.38</ele>
        <time>2018-10-01T09:55:38Z</time>
      </trkpt>
      <trkpt lat="43.98397" lon="5.12871">
        <ele>267.38</ele>
        <time>2018-10-01T09:55:56Z</time>
      </trkpt>
      <trkpt lat="43.98389" lon="5.12881">
        <ele>267.38</ele>
        <time>2018-10-01T09:56:08Z</time>
      </trkpt>
      <trkpt lat="43.98386" lon="5.12883">
        <ele>267.38</ele>
        <time>2018-10-01T09:56:12Z</time>
      </trkpt>
      <trkpt lat="43.98378" lon="5.12884">
        <ele>267.38</ele>
        <time>2018-10-01T09:56:19Z</time>
      </trkpt>
      <trkpt lat="43.98371" lon="5.12883">
        <ele>265.94</ele>
        <time>2018-10-01T09:56:25Z</time>
      </trkpt>
      <trkpt lat="43.98367" lon="5.12884">
        <ele>264.98</ele>
        <time>2018-10-01T09:56:30Z</time>
      </trkpt>
      <trkpt lat="43.98363" lon="5.12887">
        <ele>264.5</ele>
        <time>2018-10-01T09:56:34Z</time>
      </trkpt>
      <trkpt lat="43.98354" lon="5.12892">
        <ele>265.46</ele>
        <time>2018-10-01T09:56:45Z</time>
      </trkpt>
      <trkpt lat="43.98353" lon="5.12893">
        <ele>264.02</ele>
        <time>2018-10-01T09:56:47Z</time>
      </trkpt>
      <trkpt lat="43.9835" lon="5.12897">
        <ele>265.46</ele>
        <time>2018-10-01T09:56:51Z</time>
      </trkpt>
      <trkpt lat="43.98344" lon="5.12905">
        <ele>265.46</ele>
        <time>2018-10-01T09:57:01Z</time>
      </trkpt>
      <trkpt lat="43.98342" lon="5.12925">
        <ele>266.9</ele>
        <time>2018-10-01T09:57:17Z</time>
      </trkpt>
      <trkpt lat="43.98351" lon="5.1293">
        <ele>267.86</ele>
        <time>2018-10-01T09:57:33Z</time>
      </trkpt>
      <trkpt lat="43.98347" lon="5.12948">
        <ele>268.83</ele>
        <time>2018-10-01T09:57:48Z</time>
      </trkpt>
      <trkpt lat="43.9834" lon="5.12973">
        <ele>270.27</ele>
        <time>2018-10-01T09:58:08Z</time>
      </trkpt>
      <trkpt lat="43.98341" lon="5.12979">
        <ele>270.27</ele>
        <time>2018-10-01T09:58:22Z</time>
      </trkpt>
      <trkpt lat="43.98345" lon="5.12993">
        <ele>273.15</ele>
        <time>2018-10-01T09:58:41Z</time>
      </trkpt>
      <trkpt lat="43.98343" lon="5.13007">
        <ele>275.07</ele>
        <time>2018-10-01T09:58:57Z</time>
      </trkpt>
      <trkpt lat="43.98335" lon="5.13021">
        <ele>276.52</ele>
        <time>2018-10-01T09:59:14Z</time>
      </trkpt>
      <trkpt lat="43.98331" lon="5.13032">
        <ele>278.44</ele>
        <time>2018-10-01T09:59:28Z</time>
      </trkpt>
      <trkpt lat="43.98328" lon="5.13042">
        <ele>279.88</ele>
        <time>2018-10-01T09:59:44Z</time>
      </trkpt>
      <trkpt lat="43.98328" lon="5.13054">
        <ele>280.84</ele>
        <time>2018-10-01T10:00:00Z</time>
      </trkpt>
      <trkpt lat="43.98329" lon="5.13069">
        <ele>282.28</ele>
        <time>2018-10-01T10:00:15Z</time>
      </trkpt>
      <trkpt lat="43.98336" lon="5.13078">
        <ele>284.69</ele>
        <time>2018-10-01T10:00:31Z</time>
      </trkpt>
      <trkpt lat="43.98342" lon="5.13086">
        <ele>286.61</ele>
        <time>2018-10-01T10:00:46Z</time>
      </trkpt>
      <trkpt lat="43.9835" lon="5.13096">
        <ele>287.57</ele>
        <time>2018-10-01T10:01:01Z</time>
      </trkpt>
      <trkpt lat="43.98348" lon="5.13109">
        <ele>289.97</ele>
        <time>2018-10-01T10:01:17Z</time>
      </trkpt>
      <trkpt lat="43.98347" lon="5.13111">
        <ele>291.42</ele>
        <time>2018-10-01T10:01:19Z</time>
      </trkpt>
      <trkpt lat="43.98345" lon="5.13123">
        <ele>291.9</ele>
        <time>2018-10-01T10:01:33Z</time>
      </trkpt>
      <trkpt lat="43.98352" lon="5.13119">
        <ele>293.34</ele>
        <time>2018-10-01T10:01:48Z</time>
      </trkpt>
      <trkpt lat="43.98363" lon="5.13121">
        <ele>294.78</ele>
        <time>2018-10-01T10:02:05Z</time>
      </trkpt>
      <trkpt lat="43.98364" lon="5.1314">
        <ele>296.22</ele>
        <time>2018-10-01T10:02:20Z</time>
      </trkpt>
      <trkpt lat="43.98359" lon="5.13167">
        <ele>296.22</ele>
        <time>2018-10-01T10:02:40Z</time>
      </trkpt>
      <trkpt lat="43.98361" lon="5.13178">
        <ele>297.18</ele>
        <time>2018-10-01T10:02:49Z</time>
      </trkpt>
      <trkpt lat="43.98374" lon="5.13198">
        <ele>298.15</ele>
        <time>2018-10-01T10:03:09Z</time>
      </trkpt>
      <trkpt lat="43.98378" lon="5.13201">
        <ele>296.7</ele>
        <time>2018-10-01T10:03:14Z</time>
      </trkpt>
      <trkpt lat="43.98385" lon="5.13207">
        <ele>295.74</ele>
        <time>2018-10-01T10:03:26Z</time>
      </trkpt>
      <trkpt lat="43.98395" lon="5.13217">
        <ele>295.74</ele>
        <time>2018-10-01T10:03:39Z</time>
      </trkpt>
      <trkpt lat="43.98405" lon="5.13226">
        <ele>297.18</ele>
        <time>2018-10-01T10:03:52Z</time>
      </trkpt>
      <trkpt lat="43.98422" lon="5.13243">
        <ele>295.74</ele>
        <time>2018-10-01T10:04:13Z</time>
      </trkpt>
      <trkpt lat="43.98429" lon="5.13248">
        <ele>296.22</ele>
        <time>2018-10-01T10:04:21Z</time>
      </trkpt>
      <trkpt lat="43.98436" lon="5.13254">
        <ele>298.15</ele>
        <time>2018-10-01T10:04:28Z</time>
      </trkpt>
      <trkpt lat="43.98455" lon="5.13273">
        <ele>298.15</ele>
        <time>2018-10-01T10:04:51Z</time>
      </trkpt>
      <trkpt lat="43.9847" lon="5.13286">
        <ele>299.11</ele>
        <time>2018-10-01T10:05:10Z</time>
      </trkpt>
      <trkpt lat="43.98482" lon="5.1331">
        <ele>298.63</ele>
        <time>2018-10-01T10:05:33Z</time>
      </trkpt>
      <trkpt lat="43.98482" lon="5.13327">
        <ele>296.22</ele>
        <time>2018-10-01T10:05:50Z</time>
      </trkpt>
      <trkpt lat="43.98489" lon="5.13335">
        <ele>294.78</ele>
        <time>2018-10-01T10:06:06Z</time>
      </trkpt>
      <trkpt lat="43.98494" lon="5.13339">
        <ele>294.78</ele>
        <time>2018-10-01T10:06:16Z</time>
      </trkpt>
      <trkpt lat="43.98496" lon="5.1334">
        <ele>292.86</ele>
        <time>2018-10-01T10:06:19Z</time>
      </trkpt>
      <trkpt lat="43.98499" lon="5.13343">
        <ele>294.3</ele>
        <time>2018-10-01T10:06:24Z</time>
      </trkpt>
      <trkpt lat="43.98503" lon="5.13348">
        <ele>292.86</ele>
        <time>2018-10-01T10:06:32Z</time>
      </trkpt>
      <trkpt lat="43.98508" lon="5.13358">
        <ele>291.42</ele>
        <time>2018-10-01T10:06:48Z</time>
      </trkpt>
      <trkpt lat="43.98509" lon="5.13363">
        <ele>291.42</ele>
        <time>2018-10-01T10:06:55Z</time>
      </trkpt>
      <trkpt lat="43.98514" lon="5.13371">
        <ele>289.97</ele>
        <time>2018-10-01T10:07:11Z</time>
      </trkpt>
      <trkpt lat="43.98518" lon="5.13387">
        <ele>289.49</ele>
        <time>2018-10-01T10:07:28Z</time>
      </trkpt>
      <trkpt lat="43.98521" lon="5.13392">
        <ele>290.94</ele>
        <time>2018-10-01T10:07:33Z</time>
      </trkpt>
      <trkpt lat="43.98524" lon="5.13394">
        <ele>289.49</ele>
        <time>2018-10-01T10:07:37Z</time>
      </trkpt>
      <trkpt lat="43.98543" lon="5.13411">
        <ele>287.57</ele>
        <time>2018-10-01T10:07:59Z</time>
      </trkpt>
      <trkpt lat="43.98563" lon="5.13424">
        <ele>287.09</ele>
        <time>2018-10-01T10:08:21Z</time>
      </trkpt>
      <trkpt lat="43.98583" lon="5.1343">
        <ele>286.13</ele>
        <time>2018-10-01T10:08:42Z</time>
      </trkpt>
      <trkpt lat="43.98602" lon="5.13429">
        <ele>287.57</ele>
        <time>2018-10-01T10:09:00Z</time>
      </trkpt>
      <trkpt lat="43.98614" lon="5.13438">
        <ele>289.49</ele>
        <time>2018-10-01T10:09:19Z</time>
      </trkpt>
      <trkpt lat="43.9862" lon="5.13451">
        <ele>290.94</ele>
        <time>2018-10-01T10:09:36Z</time>
      </trkpt>
      <trkpt lat="43.98631" lon="5.13473">
        <ele>289.97</ele>
        <time>2018-10-01T10:09:55Z</time>
      </trkpt>
      <trkpt lat="43.98633" lon="5.1348">
        <ele>291.42</ele>
        <time>2018-10-01T10:10:01Z</time>
      </trkpt>
      <trkpt lat="43.98636" lon="5.13494">
        <ele>289.97</ele>
        <time>2018-10-01T10:10:14Z</time>
      </trkpt>
      <trkpt lat="43.98641" lon="5.13499">
        <ele>289.49</ele>
        <time>2018-10-01T10:10:22Z</time>
      </trkpt>
      <trkpt lat="43.98647" lon="5.13511">
        <ele>285.65</ele>
        <time>2018-10-01T10:10:34Z</time>
      </trkpt>
      <trkpt lat="43.98648" lon="5.13512">
        <ele>285.65</ele>
        <time>2018-10-01T10:10:35Z</time>
      </trkpt>
      <trkpt lat="43.98654" lon="5.13524">
        <ele>287.09</ele>
        <time>2018-10-01T10:10:46Z</time>
      </trkpt>
      <trkpt lat="43.98657" lon="5.13529">
        <ele>283.73</ele>
        <time>2018-10-01T10:10:50Z</time>
      </trkpt>
      <trkpt lat="43.98657" lon="5.1353">
        <ele>283.73</ele>
        <time>2018-10-01T10:10:51Z</time>
      </trkpt>
      <trkpt lat="43.98659" lon="5.13534">
        <ele>287.57</ele>
        <time>2018-10-01T10:10:54Z</time>
      </trkpt>
      <trkpt lat="43.9866" lon="5.13535">
        <ele>287.09</ele>
        <time>2018-10-01T10:10:55Z</time>
      </trkpt>
      <trkpt lat="43.98671" lon="5.1355">
        <ele>286.13</ele>
        <time>2018-10-01T10:11:10Z</time>
      </trkpt>
      <trkpt lat="43.98678" lon="5.13554">
        <ele>286.13</ele>
        <time>2018-10-01T10:11:17Z</time>
      </trkpt>
      <trkpt lat="43.98681" lon="5.13555">
        <ele>287.09</ele>
        <time>2018-10-01T10:11:20Z</time>
      </trkpt>
      <trkpt lat="43.98689" lon="5.1356">
        <ele>285.65</ele>
        <time>2018-10-01T10:11:28Z</time>
      </trkpt>
      <trkpt lat="43.98692" lon="5.13564">
        <ele>288.05</ele>
        <time>2018-10-01T10:11:32Z</time>
      </trkpt>
      <trkpt lat="43.98687" lon="5.13577">
        <ele>289.97</ele>
        <time>2018-10-01T10:11:45Z</time>
      </trkpt>
      <trkpt lat="43.98678" lon="5.13597">
        <ele>290.46</ele>
        <time>2018-10-01T10:12:03Z</time>
      </trkpt>
      <trkpt lat="43.98667" lon="5.13615">
        <ele>292.38</ele>
        <time>2018-10-01T10:12:22Z</time>
      </trkpt>
      <trkpt lat="43.98655" lon="5.13634">
        <ele>292.86</ele>
        <time>2018-10-01T10:12:40Z</time>
      </trkpt>
      <trkpt lat="43.98645" lon="5.13649">
        <ele>294.78</ele>
        <time>2018-10-01T10:12:56Z</time>
      </trkpt>
      <trkpt lat="43.98643" lon="5.13652">
        <ele>292.86</ele>
        <time>2018-10-01T10:12:59Z</time>
      </trkpt>
      <trkpt lat="43.98642" lon="5.13654">
        <ele>294.78</ele>
        <time>2018-10-01T10:13:01Z</time>
      </trkpt>
      <trkpt lat="43.98631" lon="5.13669">
        <ele>294.78</ele>
        <time>2018-10-01T10:13:19Z</time>
      </trkpt>
      <trkpt lat="43.98621" lon="5.13681">
        <ele>297.18</ele>
        <time>2018-10-01T10:13:34Z</time>
      </trkpt>
      <trkpt lat="43.98613" lon="5.13695">
        <ele>298.63</ele>
        <time>2018-10-01T10:13:49Z</time>
      </trkpt>
      <trkpt lat="43.98605" lon="5.13711">
        <ele>300.55</ele>
        <time>2018-10-01T10:14:06Z</time>
      </trkpt>
      <trkpt lat="43.98598" lon="5.13726">
        <ele>300.55</ele>
        <time>2018-10-01T10:14:21Z</time>
      </trkpt>
      <trkpt lat="43.98592" lon="5.13745">
        <ele>301.51</ele>
        <time>2018-10-01T10:14:38Z</time>
      </trkpt>
      <trkpt lat="43.98585" lon="5.13764">
        <ele>301.51</ele>
        <time>2018-10-01T10:14:54Z</time>
      </trkpt>
      <trkpt lat="43.9858" lon="5.13791">
        <ele>302.47</ele>
        <time>2018-10-01T10:15:16Z</time>
      </trkpt>
      <trkpt lat="43.98587" lon="5.13812">
        <ele>300.55</ele>
        <time>2018-10-01T10:15:32Z</time>
      </trkpt>
      <trkpt lat="43.98592" lon="5.13823">
        <ele>301.51</ele>
        <time>2018-10-01T10:15:41Z</time>
      </trkpt>
      <trkpt lat="43.986" lon="5.13842">
        <ele>303.91</ele>
        <time>2018-10-01T10:16:00Z</time>
      </trkpt>
      <trkpt lat="43.98609" lon="5.13868">
        <ele>305.36</ele>
        <time>2018-10-01T10:16:21Z</time>
      </trkpt>
      <trkpt lat="43.98618" lon="5.13896">
        <ele>305.84</ele>
        <time>2018-10-01T10:16:43Z</time>
      </trkpt>
      <trkpt lat="43.98623" lon="5.13908">
        <ele>306.32</ele>
        <time>2018-10-01T10:16:55Z</time>
      </trkpt>
      <trkpt lat="43.98633" lon="5.13917">
        <ele>304.39</ele>
        <time>2018-10-01T10:17:16Z</time>
      </trkpt>
      <trkpt lat="43.98633" lon="5.1392">
        <ele>303.91</ele>
        <time>2018-10-01T10:17:47Z</time>
      </trkpt>
      <trkpt lat="43.98632" lon="5.13926">
        <ele>303.43</ele>
        <time>2018-10-01T10:18:16Z</time>
      </trkpt>
      <trkpt lat="43.98625" lon="5.13934">
        <ele>301.51</ele>
        <time>2018-10-01T10:18:34Z</time>
      </trkpt>
      <trkpt lat="43.98622" lon="5.1394">
        <ele>300.55</ele>
        <time>2018-10-01T10:18:48Z</time>
      </trkpt>
      <trkpt lat="43.98619" lon="5.13953">
        <ele>298.63</ele>
        <time>2018-10-01T10:19:06Z</time>
      </trkpt>
      <trkpt lat="43.98617" lon="5.13967">
        <ele>297.18</ele>
        <time>2018-10-01T10:19:20Z</time>
      </trkpt>
      <trkpt lat="43.98616" lon="5.1398">
        <ele>295.74</ele>
        <time>2018-10-01T10:19:34Z</time>
      </trkpt>
      <trkpt lat="43.98615" lon="5.13991">
        <ele>294.78</ele>
        <time>2018-10-01T10:19:50Z</time>
      </trkpt>
      <trkpt lat="43.98613" lon="5.14007">
        <ele>292.86</ele>
        <time>2018-10-01T10:20:10Z</time>
      </trkpt>
      <trkpt lat="43.98611" lon="5.14029">
        <ele>292.38</ele>
        <time>2018-10-01T10:20:26Z</time>
      </trkpt>
      <trkpt lat="43.98608" lon="5.14049">
        <ele>291.42</ele>
        <time>2018-10-01T10:20:44Z</time>
      </trkpt>
      <trkpt lat="43.98606" lon="5.1406">
        <ele>289.49</ele>
        <time>2018-10-01T10:20:59Z</time>
      </trkpt>
      <trkpt lat="43.98606" lon="5.14068">
        <ele>288.05</ele>
        <time>2018-10-01T10:21:13Z</time>
      </trkpt>
      <trkpt lat="43.98604" lon="5.14075">
        <ele>286.61</ele>
        <time>2018-10-01T10:21:26Z</time>
      </trkpt>
      <trkpt lat="43.986" lon="5.14082">
        <ele>285.65</ele>
        <time>2018-10-01T10:21:40Z</time>
      </trkpt>
      <trkpt lat="43.98602" lon="5.14092">
        <ele>284.21</ele>
        <time>2018-10-01T10:21:57Z</time>
      </trkpt>
      <trkpt lat="43.98602" lon="5.14103">
        <ele>282.28</ele>
        <time>2018-10-01T10:22:12Z</time>
      </trkpt>
      <trkpt lat="43.98603" lon="5.14112">
        <ele>280.84</ele>
        <time>2018-10-01T10:22:25Z</time>
      </trkpt>
      <trkpt lat="43.98601" lon="5.14116">
        <ele>279.88</ele>
        <time>2018-10-01T10:22:41Z</time>
      </trkpt>
      <trkpt lat="43.98601" lon="5.14115">
        <ele>279.88</ele>
        <time>2018-10-01T10:23:02Z</time>
      </trkpt>
      <trkpt lat="43.98601" lon="5.14115">
        <ele>277</ele>
        <time>2018-10-01T10:23:21Z</time>
      </trkpt>
      <trkpt lat="43.98601" lon="5.14115">
        <ele>281.8</ele>
        <time>2018-10-01T10:23:22Z</time>
      </trkpt>
      <trkpt lat="43.986" lon="5.14115">
        <ele>278.44</ele>
        <time>2018-10-01T10:23:24Z</time>
      </trkpt>
      <trkpt lat="43.98603" lon="5.14116">
        <ele>278.92</ele>
        <time>2018-10-01T10:23:39Z</time>
      </trkpt>
      <trkpt lat="43.98601" lon="5.14115">
        <ele>278.44</ele>
        <time>2018-10-01T10:23:57Z</time>
      </trkpt>
      <trkpt lat="43.98601" lon="5.14114">
        <ele>278.44</ele>
        <time>2018-10-01T10:24:34Z</time>
      </trkpt>
      <trkpt lat="43.98601" lon="5.14116">
        <ele>278.44</ele>
        <time>2018-10-01T10:24:56Z</time>
      </trkpt>
      <trkpt lat="43.98602" lon="5.14114">
        <ele>278.92</ele>
        <time>2018-10-01T10:25:29Z</time>
      </trkpt>
      <trkpt lat="43.98604" lon="5.14113">
        <ele>278.92</ele>
        <time>2018-10-01T10:25:55Z</time>
      </trkpt>
      <trkpt lat="43.98603" lon="5.14113">
        <ele>276.04</ele>
        <time>2018-10-01T10:26:07Z</time>
      </trkpt>
      <trkpt lat="43.98602" lon="5.14114">
        <ele>277.96</ele>
        <time>2018-10-01T10:26:12Z</time>
      </trkpt>
      <trkpt lat="43.98601" lon="5.14116">
        <ele>277.48</ele>
        <time>2018-10-01T10:26:40Z</time>
      </trkpt>
      <trkpt lat="43.98602" lon="5.14116">
        <ele>278.44</ele>
        <time>2018-10-01T10:27:17Z</time>
      </trkpt>
      <trkpt lat="43.98602" lon="5.14115">
        <ele>279.88</ele>
        <time>2018-10-01T10:27:24Z</time>
      </trkpt>
      <trkpt lat="43.98602" lon="5.14114">
        <ele>277.96</ele>
        <time>2018-10-01T10:27:28Z</time>
      </trkpt>
      <trkpt lat="43.98603" lon="5.14113">
        <ele>279.4</ele>
        <time>2018-10-01T10:27:40Z</time>
      </trkpt>
      <trkpt lat="43.98603" lon="5.14112">
        <ele>281.32</ele>
        <time>2018-10-01T10:27:50Z</time>
      </trkpt>
      <trkpt lat="43.98603" lon="5.14112">
        <ele>278.44</ele>
        <time>2018-10-01T10:27:53Z</time>
      </trkpt>
      <trkpt lat="43.98603" lon="5.14113">
        <ele>279.4</ele>
        <time>2018-10-01T10:28:12Z</time>
      </trkpt>
      <trkpt lat="43.98603" lon="5.14114">
        <ele>280.36</ele>
        <time>2018-10-01T10:28:45Z</time>
      </trkpt>
      <trkpt lat="43.98603" lon="5.14114">
        <ele>279.4</ele>
        <time>2018-10-01T10:28:50Z</time>
      </trkpt>
      <trkpt lat="43.98602" lon="5.14114">
        <ele>278.92</ele>
        <time>2018-10-01T10:29:26Z</time>
      </trkpt>
      <trkpt lat="43.98601" lon="5.14113">
        <ele>278.44</ele>
        <time>2018-10-01T10:29:57Z</time>
      </trkpt>
      <trkpt lat="43.98601" lon="5.14114">
        <ele>278.44</ele>
        <time>2018-10-01T10:30:26Z</time>
      </trkpt>
      <trkpt lat="43.98601" lon="5.14113">
        <ele>281.32</ele>
        <time>2018-10-01T10:30:58Z</time>
      </trkpt>
      <trkpt lat="43.98602" lon="5.14112">
        <ele>278.92</ele>
        <time>2018-10-01T10:31:30Z</time>
      </trkpt>
      <trkpt lat="43.98603" lon="5.14114">
        <ele>280.36</ele>
        <time>2018-10-01T10:32:00Z</time>
      </trkpt>
      <trkpt lat="43.98603" lon="5.14114">
        <ele>278.92</ele>
        <time>2018-10-01T10:32:15Z</time>
      </trkpt>
      <trkpt lat="43.98602" lon="5.14114">
        <ele>280.36</ele>
        <time>2018-10-01T10:32:48Z</time>
      </trkpt>
      <trkpt lat="43.98601" lon="5.14114">
        <ele>278.92</ele>
        <time>2018-10-01T10:32:51Z</time>
      </trkpt>
      <trkpt lat="43.98601" lon="5.14115">
        <ele>281.8</ele>
        <time>2018-10-01T10:33:08Z</time>
      </trkpt>
      <trkpt lat="43.98602" lon="5.14115">
        <ele>278.44</ele>
        <time>2018-10-01T10:33:19Z</time>
      </trkpt>
      <trkpt lat="43.98602" lon="5.14115">
        <ele>278.44</ele>
        <time>2018-10-01T10:33:20Z</time>
      </trkpt>
      <trkpt lat="43.98602" lon="5.14114">
        <ele>280.36</ele>
        <time>2018-10-01T10:33:25Z</time>
      </trkpt>
      <trkpt lat="43.98602" lon="5.14115">
        <ele>279.4</ele>
        <time>2018-10-01T10:33:54Z</time>
      </trkpt>
      <trkpt lat="43.98603" lon="5.14115">
        <ele>280.84</ele>
        <time>2018-10-01T10:33:58Z</time>
      </trkpt>
      <trkpt lat="43.98602" lon="5.14117">
        <ele>279.88</ele>
        <time>2018-10-01T10:34:17Z</time>
      </trkpt>
      <trkpt lat="43.98602" lon="5.14117">
        <ele>280.36</ele>
        <time>2018-10-01T10:34:30Z</time>
      </trkpt>
      <trkpt lat="43.986" lon="5.14112">
        <ele>280.36</ele>
        <time>2018-10-01T10:35:01Z</time>
      </trkpt>
      <trkpt lat="43.98602" lon="5.14114">
        <ele>279.4</ele>
        <time>2018-10-01T10:35:38Z</time>
      </trkpt>
      <trkpt lat="43.98602" lon="5.14115">
        <ele>281.32</ele>
        <time>2018-10-01T10:35:40Z</time>
      </trkpt>
      <trkpt lat="43.98602" lon="5.14115">
        <ele>280.36</ele>
        <time>2018-10-01T10:35:48Z</time>
      </trkpt>
      <trkpt lat="43.98603" lon="5.14116">
        <ele>282.28</ele>
        <time>2018-10-01T10:36:16Z</time>
      </trkpt>
      <trkpt lat="43.98603" lon="5.14114">
        <ele>281.8</ele>
        <time>2018-10-01T10:36:41Z</time>
      </trkpt>
      <trkpt lat="43.98603" lon="5.14115">
        <ele>280.84</ele>
        <time>2018-10-01T10:36:47Z</time>
      </trkpt>
      <trkpt lat="43.98603" lon="5.14116">
        <ele>281.32</ele>
        <time>2018-10-01T10:37:05Z</time>
      </trkpt>
      <trkpt lat="43.98602" lon="5.14115">
        <ele>279.88</ele>
        <time>2018-10-01T10:37:20Z</time>
      </trkpt>
      <trkpt lat="43.98603" lon="5.14115">
        <ele>280.36</ele>
        <time>2018-10-01T10:37:37Z</time>
      </trkpt>
      <trkpt lat="43.98603" lon="5.14115">
        <ele>279.4</ele>
        <time>2018-10-01T10:37:47Z</time>
      </trkpt>
      <trkpt lat="43.98602" lon="5.14115">
        <ele>281.32</ele>
        <time>2018-10-01T10:38:13Z</time>
      </trkpt>
      <trkpt lat="43.98603" lon="5.14116">
        <ele>280.84</ele>
        <time>2018-10-01T10:38:54Z</time>
      </trkpt>
      <trkpt lat="43.98604" lon="5.14116">
        <ele>280.36</ele>
        <time>2018-10-01T10:39:29Z</time>
      </trkpt>
      <trkpt lat="43.98605" lon="5.14115">
        <ele>280.84</ele>
        <time>2018-10-01T10:39:57Z</time>
      </trkpt>
      <trkpt lat="43.98604" lon="5.14114">
        <ele>283.73</ele>
        <time>2018-10-01T10:40:22Z</time>
      </trkpt>
      <trkpt lat="43.98604" lon="5.14114">
        <ele>282.28</ele>
        <time>2018-10-01T10:40:26Z</time>
      </trkpt>
      <trkpt lat="43.98602" lon="5.14115">
        <ele>280.84</ele>
        <time>2018-10-01T10:40:56Z</time>
      </trkpt>
      <trkpt lat="43.98603" lon="5.14115">
        <ele>282.28</ele>
        <time>2018-10-01T10:41:25Z</time>
      </trkpt>
      <trkpt lat="43.98603" lon="5.14116">
        <ele>282.28</ele>
        <time>2018-10-01T10:41:59Z</time>
      </trkpt>
      <trkpt lat="43.98602" lon="5.14112">
        <ele>282.28</ele>
        <time>2018-10-01T10:42:29Z</time>
      </trkpt>
      <trkpt lat="43.98603" lon="5.14113">
        <ele>282.77</ele>
        <time>2018-10-01T10:42:57Z</time>
      </trkpt>
      <trkpt lat="43.98602" lon="5.14115">
        <ele>282.77</ele>
        <time>2018-10-01T10:43:24Z</time>
      </trkpt>
      <trkpt lat="43.98604" lon="5.14116">
        <ele>282.77</ele>
        <time>2018-10-01T10:43:56Z</time>
      </trkpt>
      <trkpt lat="43.98603" lon="5.14113">
        <ele>282.77</ele>
        <time>2018-10-01T10:44:25Z</time>
      </trkpt>
      <trkpt lat="43.98603" lon="5.14112">
        <ele>282.77</ele>
        <time>2018-10-01T10:44:54Z</time>
      </trkpt>
      <trkpt lat="43.98604" lon="5.14115">
        <ele>281.32</ele>
        <time>2018-10-01T10:45:18Z</time>
      </trkpt>
      <trkpt lat="43.98603" lon="5.14112">
        <ele>281.8</ele>
        <time>2018-10-01T10:45:55Z</time>
      </trkpt>
      <trkpt lat="43.98602" lon="5.14112">
        <ele>281.8</ele>
        <time>2018-10-01T10:46:18Z</time>
      </trkpt>
      <trkpt lat="43.98602" lon="5.14116">
        <ele>284.21</ele>
        <time>2018-10-01T10:46:52Z</time>
      </trkpt>
      <trkpt lat="43.98602" lon="5.14114">
        <ele>282.28</ele>
        <time>2018-10-01T10:47:25Z</time>
      </trkpt>
      <trkpt lat="43.98602" lon="5.14113">
        <ele>282.28</ele>
        <time>2018-10-01T10:47:52Z</time>
      </trkpt>
      <trkpt lat="43.98601" lon="5.14114">
        <ele>281.8</ele>
        <time>2018-10-01T10:48:07Z</time>
      </trkpt>
      <trkpt lat="43.98601" lon="5.14115">
        <ele>281.8</ele>
        <time>2018-10-01T10:48:36Z</time>
      </trkpt>
      <trkpt lat="43.98602" lon="5.14115">
        <ele>282.77</ele>
        <time>2018-10-01T10:48:41Z</time>
      </trkpt>
      <trkpt lat="43.98602" lon="5.14115">
        <ele>281.32</ele>
        <time>2018-10-01T10:48:46Z</time>
      </trkpt>
      <trkpt lat="43.98603" lon="5.14115">
        <ele>283.25</ele>
        <time>2018-10-01T10:49:08Z</time>
      </trkpt>
      <trkpt lat="43.98603" lon="5.14114">
        <ele>280.36</ele>
        <time>2018-10-01T10:49:17Z</time>
      </trkpt>
      <trkpt lat="43.98603" lon="5.14114">
        <ele>281.8</ele>
        <time>2018-10-01T10:49:23Z</time>
      </trkpt>
      <trkpt lat="43.98603" lon="5.14114">
        <ele>281.32</ele>
        <time>2018-10-01T10:49:37Z</time>
      </trkpt>
      <trkpt lat="43.98604" lon="5.14115">
        <ele>283.73</ele>
        <time>2018-10-01T10:49:49Z</time>
      </trkpt>
      <trkpt lat="43.98603" lon="5.14115">
        <ele>281.8</ele>
        <time>2018-10-01T10:50:18Z</time>
      </trkpt>
      <trkpt lat="43.98604" lon="5.14113">
        <ele>281.8</ele>
        <time>2018-10-01T10:50:48Z</time>
      </trkpt>
      <trkpt lat="43.98602" lon="5.14112">
        <ele>281.32</ele>
        <time>2018-10-01T10:51:22Z</time>
      </trkpt>
      <trkpt lat="43.98602" lon="5.14116">
        <ele>280.84</ele>
        <time>2018-10-01T10:52:00Z</time>
      </trkpt>
      <trkpt lat="43.98601" lon="5.14115">
        <ele>283.25</ele>
        <time>2018-10-01T10:52:41Z</time>
      </trkpt>
      <trkpt lat="43.98602" lon="5.14114">
        <ele>283.25</ele>
        <time>2018-10-01T10:53:20Z</time>
      </trkpt>
      <trkpt lat="43.98601" lon="5.14114">
        <ele>283.25</ele>
        <time>2018-10-01T10:54:02Z</time>
      </trkpt>
      <trkpt lat="43.986" lon="5.14116">
        <ele>281.8</ele>
        <time>2018-10-01T10:54:16Z</time>
      </trkpt>
      <trkpt lat="43.98601" lon="5.14116">
        <ele>281.32</ele>
        <time>2018-10-01T10:54:54Z</time>
      </trkpt>
      <trkpt lat="43.98601" lon="5.14113">
        <ele>281.32</ele>
        <time>2018-10-01T10:55:28Z</time>
      </trkpt>
      <trkpt lat="43.98603" lon="5.14113">
        <ele>281.32</ele>
        <time>2018-10-01T10:56:15Z</time>
      </trkpt>
      <trkpt lat="43.98602" lon="5.14114">
        <ele>282.77</ele>
        <time>2018-10-01T10:56:38Z</time>
      </trkpt>
      <trkpt lat="43.986" lon="5.14115">
        <ele>280.84</ele>
        <time>2018-10-01T10:57:14Z</time>
      </trkpt>
      <trkpt lat="43.98601" lon="5.14117">
        <ele>282.77</ele>
        <time>2018-10-01T10:57:52Z</time>
      </trkpt>
      <trkpt lat="43.98602" lon="5.14116">
        <ele>283.25</ele>
        <time>2018-10-01T10:58:06Z</time>
      </trkpt>
      <trkpt lat="43.98604" lon="5.14116">
        <ele>281.8</ele>
        <time>2018-10-01T10:58:43Z</time>
      </trkpt>
      <trkpt lat="43.98605" lon="5.14116">
        <ele>280.84</ele>
        <time>2018-10-01T10:59:14Z</time>
      </trkpt>
      <trkpt lat="43.98606" lon="5.14116">
        <ele>283.73</ele>
        <time>2018-10-01T10:59:27Z</time>
      </trkpt>
      <trkpt lat="43.98605" lon="5.14115">
        <ele>281.8</ele>
        <time>2018-10-01T10:59:32Z</time>
      </trkpt>
      <trkpt lat="43.98604" lon="5.14115">
        <ele>282.77</ele>
        <time>2018-10-01T10:59:52Z</time>
      </trkpt>
      <trkpt lat="43.98605" lon="5.14115">
        <ele>282.77</ele>
        <time>2018-10-01T11:00:10Z</time>
      </trkpt>
      <trkpt lat="43.98604" lon="5.14116">
        <ele>281.8</ele>
        <time>2018-10-01T11:00:23Z</time>
      </trkpt>
      <trkpt lat="43.98604" lon="5.14116">
        <ele>282.77</ele>
        <time>2018-10-01T11:00:39Z</time>
      </trkpt>
      <trkpt lat="43.98602" lon="5.14119">
        <ele>283.73</ele>
        <time>2018-10-01T11:01:12Z</time>
      </trkpt>
      <trkpt lat="43.98602" lon="5.14119">
        <ele>282.28</ele>
        <time>2018-10-01T11:01:18Z</time>
      </trkpt>
      <trkpt lat="43.98602" lon="5.14118">
        <ele>281.8</ele>
        <time>2018-10-01T11:01:52Z</time>
      </trkpt>
      <trkpt lat="43.98603" lon="5.14117">
        <ele>281.8</ele>
        <time>2018-10-01T11:02:21Z</time>
      </trkpt>
      <trkpt lat="43.986" lon="5.14116">
        <ele>282.77</ele>
        <time>2018-10-01T11:02:55Z</time>
      </trkpt>
      <trkpt lat="43.986" lon="5.14117">
        <ele>282.77</ele>
        <time>2018-10-01T11:03:16Z</time>
      </trkpt>
      <trkpt lat="43.98601" lon="5.14117">
        <ele>282.77</ele>
        <time>2018-10-01T11:03:51Z</time>
      </trkpt>
      <trkpt lat="43.98603" lon="5.14116">
        <ele>281.8</ele>
        <time>2018-10-01T11:04:21Z</time>
      </trkpt>
      <trkpt lat="43.98603" lon="5.14116">
        <ele>282.77</ele>
        <time>2018-10-01T11:04:24Z</time>
      </trkpt>
      <trkpt lat="43.98604" lon="5.14115">
        <ele>281.32</ele>
        <time>2018-10-01T11:05:02Z</time>
      </trkpt>
      <trkpt lat="43.98603" lon="5.14115">
        <ele>282.77</ele>
        <time>2018-10-01T11:05:06Z</time>
      </trkpt>
      <trkpt lat="43.98603" lon="5.14115">
        <ele>281.8</ele>
        <time>2018-10-01T11:05:26Z</time>
      </trkpt>
      <trkpt lat="43.98603" lon="5.14115">
        <ele>283.25</ele>
        <time>2018-10-01T11:05:35Z</time>
      </trkpt>
      <trkpt lat="43.98603" lon="5.14114">
        <ele>281.8</ele>
        <time>2018-10-01T11:05:41Z</time>
      </trkpt>
      <trkpt lat="43.98604" lon="5.14115">
        <ele>283.25</ele>
        <time>2018-10-01T11:06:04Z</time>
      </trkpt>
      <trkpt lat="43.98602" lon="5.14116">
        <ele>283.25</ele>
        <time>2018-10-01T11:06:42Z</time>
      </trkpt>
      <trkpt lat="43.98601" lon="5.14117">
        <ele>282.28</ele>
        <time>2018-10-01T11:07:21Z</time>
      </trkpt>
      <trkpt lat="43.98601" lon="5.14118">
        <ele>282.77</ele>
        <time>2018-10-01T11:07:44Z</time>
      </trkpt>
      <trkpt lat="43.98602" lon="5.14117">
        <ele>283.25</ele>
        <time>2018-10-01T11:07:56Z</time>
      </trkpt>
      <trkpt lat="43.98601" lon="5.14115">
        <ele>283.25</ele>
        <time>2018-10-01T11:08:19Z</time>
      </trkpt>
      <trkpt lat="43.98602" lon="5.14114">
        <ele>284.21</ele>
        <time>2018-10-01T11:08:42Z</time>
      </trkpt>
      <trkpt lat="43.98603" lon="5.14116">
        <ele>280.84</ele>
        <time>2018-10-01T11:08:54Z</time>
      </trkpt>
      <trkpt lat="43.98603" lon="5.14116">
        <ele>285.65</ele>
        <time>2018-10-01T11:08:55Z</time>
      </trkpt>
      <trkpt lat="43.98597" lon="5.1411">
        <ele>284.69</ele>
        <time>2018-10-01T11:09:11Z</time>
      </trkpt>
      <trkpt lat="43.9859" lon="5.14111">
        <ele>282.77</ele>
        <time>2018-10-01T11:09:29Z</time>
      </trkpt>
      <trkpt lat="43.98593" lon="5.14116">
        <ele>282.28</ele>
        <time>2018-10-01T11:09:43Z</time>
      </trkpt>
      <trkpt lat="43.98596" lon="5.14117">
        <ele>280.36</ele>
        <time>2018-10-01T11:10:04Z</time>
      </trkpt>
      <trkpt lat="43.986" lon="5.1412">
        <ele>279.4</ele>
        <time>2018-10-01T11:10:18Z</time>
      </trkpt>
      <trkpt lat="43.98601" lon="5.1412">
        <ele>277.96</ele>
        <time>2018-10-01T11:10:25Z</time>
      </trkpt>
      <trkpt lat="43.98604" lon="5.14122">
        <ele>275.07</ele>
        <time>2018-10-01T11:10:47Z</time>
      </trkpt>
      <trkpt lat="43.98605" lon="5.14121">
        <ele>273.63</ele>
        <time>2018-10-01T11:10:50Z</time>
      </trkpt>
      <trkpt lat="43.98612" lon="5.14122">
        <ele>274.59</ele>
        <time>2018-10-01T11:11:08Z</time>
      </trkpt>
      <trkpt lat="43.98614" lon="5.14126">
        <ele>273.63</ele>
        <time>2018-10-01T11:11:26Z</time>
      </trkpt>
      <trkpt lat="43.98612" lon="5.14128">
        <ele>272.67</ele>
        <time>2018-10-01T11:11:51Z</time>
      </trkpt>
      <trkpt lat="43.98614" lon="5.14129">
        <ele>272.67</ele>
        <time>2018-10-01T11:12:17Z</time>
      </trkpt>
      <trkpt lat="43.98622" lon="5.14129">
        <ele>270.75</ele>
        <time>2018-10-01T11:12:35Z</time>
      </trkpt>
      <trkpt lat="43.98623" lon="5.14125">
        <ele>267.86</ele>
        <time>2018-10-01T11:13:00Z</time>
      </trkpt>
      <trkpt lat="43.98625" lon="5.14123">
        <ele>266.42</ele>
        <time>2018-10-01T11:13:23Z</time>
      </trkpt>
      <trkpt lat="43.98633" lon="5.14128">
        <ele>264.98</ele>
        <time>2018-10-01T11:13:45Z</time>
      </trkpt>
      <trkpt lat="43.98637" lon="5.14131">
        <ele>263.54</ele>
        <time>2018-10-01T11:14:08Z</time>
      </trkpt>
      <trkpt lat="43.98638" lon="5.14134">
        <ele>263.06</ele>
        <time>2018-10-01T11:14:32Z</time>
      </trkpt>
      <trkpt lat="43.98643" lon="5.14136">
        <ele>261.62</ele>
        <time>2018-10-01T11:14:49Z</time>
      </trkpt>
      <trkpt lat="43.98648" lon="5.14136">
        <ele>260.65</ele>
        <time>2018-10-01T11:15:05Z</time>
      </trkpt>
      <trkpt lat="43.98647" lon="5.14139">
        <ele>259.69</ele>
        <time>2018-10-01T11:15:22Z</time>
      </trkpt>
      <trkpt lat="43.98644" lon="5.14145">
        <ele>258.73</ele>
        <time>2018-10-01T11:15:41Z</time>
      </trkpt>
      <trkpt lat="43.98648" lon="5.1415">
        <ele>257.29</ele>
        <time>2018-10-01T11:15:58Z</time>
      </trkpt>
      <trkpt lat="43.9865" lon="5.14153">
        <ele>256.81</ele>
        <time>2018-10-01T11:16:17Z</time>
      </trkpt>
      <trkpt lat="43.98652" lon="5.14158">
        <ele>255.37</ele>
        <time>2018-10-01T11:16:34Z</time>
      </trkpt>
      <trkpt lat="43.98653" lon="5.14155">
        <ele>254.41</ele>
        <time>2018-10-01T11:16:51Z</time>
      </trkpt>
      <trkpt lat="43.98646" lon="5.14154">
        <ele>253.44</ele>
        <time>2018-10-01T11:17:09Z</time>
      </trkpt>
      <trkpt lat="43.98641" lon="5.14157">
        <ele>252.96</ele>
        <time>2018-10-01T11:17:26Z</time>
      </trkpt>
      <trkpt lat="43.98641" lon="5.1415">
        <ele>250.56</ele>
        <time>2018-10-01T11:17:51Z</time>
      </trkpt>
      <trkpt lat="43.98636" lon="5.14153">
        <ele>248.64</ele>
        <time>2018-10-01T11:18:09Z</time>
      </trkpt>
      <trkpt lat="43.98635" lon="5.14157">
        <ele>248.64</ele>
        <time>2018-10-01T11:18:26Z</time>
      </trkpt>
      <trkpt lat="43.98634" lon="5.1416">
        <ele>249.6</ele>
        <time>2018-10-01T11:18:35Z</time>
      </trkpt>
      <trkpt lat="43.98631" lon="5.14164">
        <ele>247.68</ele>
        <time>2018-10-01T11:18:53Z</time>
      </trkpt>
      <trkpt lat="43.98629" lon="5.14159">
        <ele>247.2</ele>
        <time>2018-10-01T11:19:12Z</time>
      </trkpt>
      <trkpt lat="43.9863" lon="5.14167">
        <ele>246.72</ele>
        <time>2018-10-01T11:19:31Z</time>
      </trkpt>
      <trkpt lat="43.98627" lon="5.14176">
        <ele>244.79</ele>
        <time>2018-10-01T11:19:43Z</time>
      </trkpt>
      <trkpt lat="43.98629" lon="5.14172">
        <ele>247.68</ele>
        <time>2018-10-01T11:20:00Z</time>
      </trkpt>
      <trkpt lat="43.98631" lon="5.1417">
        <ele>245.75</ele>
        <time>2018-10-01T11:20:27Z</time>
      </trkpt>
      <trkpt lat="43.98631" lon="5.14168">
        <ele>246.72</ele>
        <time>2018-10-01T11:20:36Z</time>
      </trkpt>
      <trkpt lat="43.98635" lon="5.14165">
        <ele>244.79</ele>
        <time>2018-10-01T11:21:16Z</time>
      </trkpt>
      <trkpt lat="43.98635" lon="5.14163">
        <ele>245.75</ele>
        <time>2018-10-01T11:21:32Z</time>
      </trkpt>
      <trkpt lat="43.98633" lon="5.14164">
        <ele>247.68</ele>
        <time>2018-10-01T11:21:54Z</time>
      </trkpt>
      <trkpt lat="43.98632" lon="5.14165">
        <ele>246.72</ele>
        <time>2018-10-01T11:22:10Z</time>
      </trkpt>
      <trkpt lat="43.98632" lon="5.14164">
        <ele>246.72</ele>
        <time>2018-10-01T11:22:23Z</time>
      </trkpt>
      <trkpt lat="43.98632" lon="5.14168">
        <ele>246.72</ele>
        <time>2018-10-01T11:22:56Z</time>
      </trkpt>
      <trkpt lat="43.98633" lon="5.14171">
        <ele>246.72</ele>
        <time>2018-10-01T11:23:22Z</time>
      </trkpt>
      <trkpt lat="43.98635" lon="5.14178">
        <ele>246.23</ele>
        <time>2018-10-01T11:23:37Z</time>
      </trkpt>
      <trkpt lat="43.98648" lon="5.1419">
        <ele>245.27</ele>
        <time>2018-10-01T11:23:56Z</time>
      </trkpt>
      <trkpt lat="43.98642" lon="5.14192">
        <ele>243.83</ele>
        <time>2018-10-01T11:24:14Z</time>
      </trkpt>
      <trkpt lat="43.98642" lon="5.14191">
        <ele>243.83</ele>
        <time>2018-10-01T11:24:15Z</time>
      </trkpt>
      <trkpt lat="43.98633" lon="5.14185">
        <ele>241.91</ele>
        <time>2018-10-01T11:24:30Z</time>
      </trkpt>
      <trkpt lat="43.98624" lon="5.14191">
        <ele>239.99</ele>
        <time>2018-10-01T11:24:47Z</time>
      </trkpt>
      <trkpt lat="43.98627" lon="5.142">
        <ele>237.58</ele>
        <time>2018-10-01T11:25:07Z</time>
      </trkpt>
      <trkpt lat="43.98632" lon="5.14201">
        <ele>235.18</ele>
        <time>2018-10-01T11:25:25Z</time>
      </trkpt>
      <trkpt lat="43.9863" lon="5.14208">
        <ele>233.26</ele>
        <time>2018-10-01T11:25:43Z</time>
      </trkpt>
      <trkpt lat="43.9863" lon="5.14214">
        <ele>231.33</ele>
        <time>2018-10-01T11:26:02Z</time>
      </trkpt>
      <trkpt lat="43.98631" lon="5.14219">
        <ele>230.37</ele>
        <time>2018-10-01T11:26:17Z</time>
      </trkpt>
      <trkpt lat="43.98634" lon="5.14224">
        <ele>228.93</ele>
        <time>2018-10-01T11:26:31Z</time>
      </trkpt>
      <trkpt lat="43.98635" lon="5.14235">
        <ele>226.53</ele>
        <time>2018-10-01T11:26:49Z</time>
      </trkpt>
      <trkpt lat="43.98638" lon="5.14245">
        <ele>225.57</ele>
        <time>2018-10-01T11:27:06Z</time>
      </trkpt>
      <trkpt lat="43.98643" lon="5.14253">
        <ele>224.61</ele>
        <time>2018-10-01T11:27:22Z</time>
      </trkpt>
      <trkpt lat="43.98654" lon="5.14267">
        <ele>222.2</ele>
        <time>2018-10-01T11:27:41Z</time>
      </trkpt>
      <trkpt lat="43.98662" lon="5.1428">
        <ele>220.28</ele>
        <time>2018-10-01T11:27:59Z</time>
      </trkpt>
      <trkpt lat="43.98668" lon="5.14292">
        <ele>218.36</ele>
        <time>2018-10-01T11:28:18Z</time>
      </trkpt>
      <trkpt lat="43.98672" lon="5.14306">
        <ele>217.88</ele>
        <time>2018-10-01T11:28:34Z</time>
      </trkpt>
      <trkpt lat="43.98666" lon="5.14321">
        <ele>217.88</ele>
        <time>2018-10-01T11:28:52Z</time>
      </trkpt>
      <trkpt lat="43.98667" lon="5.14326">
        <ele>218.84</ele>
        <time>2018-10-01T11:29:03Z</time>
      </trkpt>
      <trkpt lat="43.98672" lon="5.14328">
        <ele>222.2</ele>
        <time>2018-10-01T11:29:15Z</time>
      </trkpt>
      <trkpt lat="43.98682" lon="5.14329">
        <ele>222.68</ele>
        <time>2018-10-01T11:29:32Z</time>
      </trkpt>
      <trkpt lat="43.98686" lon="5.1433">
        <ele>225.57</ele>
        <time>2018-10-01T11:29:40Z</time>
      </trkpt>
      <trkpt lat="43.98695" lon="5.14329">
        <ele>227.49</ele>
        <time>2018-10-01T11:29:57Z</time>
      </trkpt>
      <trkpt lat="43.98703" lon="5.14324">
        <ele>229.41</ele>
        <time>2018-10-01T11:30:13Z</time>
      </trkpt>
      <trkpt lat="43.98716" lon="5.14328">
        <ele>229.89</ele>
        <time>2018-10-01T11:30:32Z</time>
      </trkpt>
      <trkpt lat="43.98716" lon="5.14329">
        <ele>230.85</ele>
        <time>2018-10-01T11:31:01Z</time>
      </trkpt>
      <trkpt lat="43.98733" lon="5.14329">
        <ele>232.3</ele>
        <time>2018-10-01T11:31:19Z</time>
      </trkpt>
      <trkpt lat="43.98743" lon="5.14325">
        <ele>233.74</ele>
        <time>2018-10-01T11:31:34Z</time>
      </trkpt>
      <trkpt lat="43.98752" lon="5.1432">
        <ele>236.14</ele>
        <time>2018-10-01T11:31:50Z</time>
      </trkpt>
      <trkpt lat="43.98767" lon="5.14324">
        <ele>237.58</ele>
        <time>2018-10-01T11:32:11Z</time>
      </trkpt>
      <trkpt lat="43.98773" lon="5.1434">
        <ele>240.47</ele>
        <time>2018-10-01T11:32:29Z</time>
      </trkpt>
      <trkpt lat="43.98781" lon="5.14349">
        <ele>239.99</ele>
        <time>2018-10-01T11:32:46Z</time>
      </trkpt>
      <trkpt lat="43.98783" lon="5.14351">
        <ele>241.91</ele>
        <time>2018-10-01T11:32:49Z</time>
      </trkpt>
      <trkpt lat="43.98791" lon="5.14357">
        <ele>243.83</ele>
        <time>2018-10-01T11:33:04Z</time>
      </trkpt>
      <trkpt lat="43.98794" lon="5.1436">
        <ele>244.79</ele>
        <time>2018-10-01T11:33:09Z</time>
      </trkpt>
      <trkpt lat="43.98803" lon="5.14378">
        <ele>247.2</ele>
        <time>2018-10-01T11:33:27Z</time>
      </trkpt>
      <trkpt lat="43.9881" lon="5.14396">
        <ele>249.6</ele>
        <time>2018-10-01T11:33:47Z</time>
      </trkpt>
      <trkpt lat="43.98817" lon="5.14414">
        <ele>250.56</ele>
        <time>2018-10-01T11:34:06Z</time>
      </trkpt>
      <trkpt lat="43.98825" lon="5.14422">
        <ele>252.48</ele>
        <time>2018-10-01T11:34:23Z</time>
      </trkpt>
      <trkpt lat="43.98835" lon="5.14423">
        <ele>255.37</ele>
        <time>2018-10-01T11:34:39Z</time>
      </trkpt>
      <trkpt lat="43.9885" lon="5.14421">
        <ele>256.33</ele>
        <time>2018-10-01T11:34:57Z</time>
      </trkpt>
      <trkpt lat="43.98859" lon="5.14422">
        <ele>259.21</ele>
        <time>2018-10-01T11:35:13Z</time>
      </trkpt>
      <trkpt lat="43.98856" lon="5.14432">
        <ele>260.65</ele>
        <time>2018-10-01T11:35:28Z</time>
      </trkpt>
      <trkpt lat="43.98844" lon="5.14432">
        <ele>263.06</ele>
        <time>2018-10-01T11:35:46Z</time>
      </trkpt>
      <trkpt lat="43.98839" lon="5.1444">
        <ele>265.46</ele>
        <time>2018-10-01T11:36:01Z</time>
      </trkpt>
      <trkpt lat="43.9884" lon="5.14444">
        <ele>266.9</ele>
        <time>2018-10-01T11:36:16Z</time>
      </trkpt>
      <trkpt lat="43.98842" lon="5.14439">
        <ele>267.86</ele>
        <time>2018-10-01T11:36:40Z</time>
      </trkpt>
      <trkpt lat="43.98851" lon="5.14438">
        <ele>268.35</ele>
        <time>2018-10-01T11:36:54Z</time>
      </trkpt>
      <trkpt lat="43.98852" lon="5.14437">
        <ele>267.38</ele>
        <time>2018-10-01T11:37:18Z</time>
      </trkpt>
      <trkpt lat="43.98851" lon="5.14439">
        <ele>268.35</ele>
        <time>2018-10-01T11:37:42Z</time>
      </trkpt>
      <trkpt lat="43.98849" lon="5.14442">
        <ele>269.31</ele>
        <time>2018-10-01T11:38:02Z</time>
      </trkpt>
      <trkpt lat="43.98846" lon="5.14441">
        <ele>268.35</ele>
        <time>2018-10-01T11:38:27Z</time>
      </trkpt>
      <trkpt lat="43.98847" lon="5.14443">
        <ele>270.27</ele>
        <time>2018-10-01T11:38:50Z</time>
      </trkpt>
      <trkpt lat="43.98847" lon="5.14443">
        <ele>268.83</ele>
        <time>2018-10-01T11:38:58Z</time>
      </trkpt>
      <trkpt lat="43.98847" lon="5.14443">
        <ele>267.38</ele>
        <time>2018-10-01T11:39:01Z</time>
      </trkpt>
      <trkpt lat="43.98847" lon="5.14443">
        <ele>271.71</ele>
        <time>2018-10-01T11:39:02Z</time>
      </trkpt>
      <trkpt lat="43.98847" lon="5.14443">
        <ele>270.27</ele>
        <time>2018-10-01T11:39:03Z</time>
      </trkpt>
      <trkpt lat="43.98846" lon="5.14449">
        <ele>269.31</ele>
        <time>2018-10-01T11:39:28Z</time>
      </trkpt>
      <trkpt lat="43.98842" lon="5.14456">
        <ele>271.71</ele>
        <time>2018-10-01T11:39:40Z</time>
      </trkpt>
      <trkpt lat="43.98837" lon="5.14465">
        <ele>273.63</ele>
        <time>2018-10-01T11:39:56Z</time>
      </trkpt>
      <trkpt lat="43.98831" lon="5.14475">
        <ele>275.07</ele>
        <time>2018-10-01T11:40:11Z</time>
      </trkpt>
      <trkpt lat="43.98828" lon="5.1448">
        <ele>276.52</ele>
        <time>2018-10-01T11:40:20Z</time>
      </trkpt>
      <trkpt lat="43.98821" lon="5.14488">
        <ele>278.44</ele>
        <time>2018-10-01T11:40:35Z</time>
      </trkpt>
      <trkpt lat="43.98815" lon="5.14497">
        <ele>280.36</ele>
        <time>2018-10-01T11:40:50Z</time>
      </trkpt>
      <trkpt lat="43.98823" lon="5.14503">
        <ele>282.77</ele>
        <time>2018-10-01T11:41:08Z</time>
      </trkpt>
      <trkpt lat="43.98834" lon="5.14502">
        <ele>284.69</ele>
        <time>2018-10-01T11:41:25Z</time>
      </trkpt>
      <trkpt lat="43.98838" lon="5.14502">
        <ele>287.57</ele>
        <time>2018-10-01T11:41:31Z</time>
      </trkpt>
      <trkpt lat="43.98839" lon="5.14503">
        <ele>285.65</ele>
        <time>2018-10-01T11:41:34Z</time>
      </trkpt>
      <trkpt lat="43.98842" lon="5.14505">
        <ele>288.05</ele>
        <time>2018-10-01T11:41:39Z</time>
      </trkpt>
      <trkpt lat="43.98852" lon="5.14516">
        <ele>289.49</ele>
        <time>2018-10-01T11:41:56Z</time>
      </trkpt>
      <trkpt lat="43.9886" lon="5.1453">
        <ele>291.42</ele>
        <time>2018-10-01T11:42:12Z</time>
      </trkpt>
      <trkpt lat="43.98871" lon="5.14545">
        <ele>293.34</ele>
        <time>2018-10-01T11:42:30Z</time>
      </trkpt>
      <trkpt lat="43.98872" lon="5.14552">
        <ele>294.78</ele>
        <time>2018-10-01T11:42:46Z</time>
      </trkpt>
      <trkpt lat="43.98872" lon="5.14552">
        <ele>294.78</ele>
        <time>2018-10-01T11:43:12Z</time>
      </trkpt>
      <trkpt lat="43.98873" lon="5.14552">
        <ele>289.97</ele>
        <time>2018-10-01T11:43:36Z</time>
      </trkpt>
      <trkpt lat="43.98873" lon="5.14552">
        <ele>298.15</ele>
        <time>2018-10-01T11:43:37Z</time>
      </trkpt>
      <trkpt lat="43.98873" lon="5.14552">
        <ele>294.78</ele>
        <time>2018-10-01T11:43:38Z</time>
      </trkpt>
      <trkpt lat="43.9888" lon="5.1456">
        <ele>296.22</ele>
        <time>2018-10-01T11:43:50Z</time>
      </trkpt>
      <trkpt lat="43.98888" lon="5.14574">
        <ele>296.7</ele>
        <time>2018-10-01T11:44:05Z</time>
      </trkpt>
      <trkpt lat="43.989" lon="5.14592">
        <ele>299.59</ele>
        <time>2018-10-01T11:44:25Z</time>
      </trkpt>
      <trkpt lat="43.98909" lon="5.14609">
        <ele>301.51</ele>
        <time>2018-10-01T11:44:42Z</time>
      </trkpt>
      <trkpt lat="43.98913" lon="5.14617">
        <ele>302.47</ele>
        <time>2018-10-01T11:44:51Z</time>
      </trkpt>
      <trkpt lat="43.98921" lon="5.14633">
        <ele>304.39</ele>
        <time>2018-10-01T11:45:09Z</time>
      </trkpt>
      <trkpt lat="43.98936" lon="5.14654">
        <ele>305.84</ele>
        <time>2018-10-01T11:45:30Z</time>
      </trkpt>
      <trkpt lat="43.98951" lon="5.14679">
        <ele>307.28</ele>
        <time>2018-10-01T11:45:53Z</time>
      </trkpt>
      <trkpt lat="43.98961" lon="5.14696">
        <ele>309.2</ele>
        <time>2018-10-01T11:46:10Z</time>
      </trkpt>
      <trkpt lat="43.98971" lon="5.14717">
        <ele>310.16</ele>
        <time>2018-10-01T11:46:28Z</time>
      </trkpt>
      <trkpt lat="43.9898" lon="5.14735">
        <ele>312.57</ele>
        <time>2018-10-01T11:46:44Z</time>
      </trkpt>
      <trkpt lat="43.98981" lon="5.14738">
        <ele>310.16</ele>
        <time>2018-10-01T11:46:47Z</time>
      </trkpt>
      <trkpt lat="43.98985" lon="5.14746">
        <ele>312.09</ele>
        <time>2018-10-01T11:46:54Z</time>
      </trkpt>
      <trkpt lat="43.98991" lon="5.14759">
        <ele>310.16</ele>
        <time>2018-10-01T11:47:06Z</time>
      </trkpt>
      <trkpt lat="43.98993" lon="5.14765">
        <ele>311.12</ele>
        <time>2018-10-01T11:47:11Z</time>
      </trkpt>
      <trkpt lat="43.98994" lon="5.14766">
        <ele>311.6</ele>
        <time>2018-10-01T11:47:12Z</time>
      </trkpt>
      <trkpt lat="43.99004" lon="5.14787">
        <ele>309.68</ele>
        <time>2018-10-01T11:47:32Z</time>
      </trkpt>
      <trkpt lat="43.9901" lon="5.14803">
        <ele>308.24</ele>
        <time>2018-10-01T11:47:49Z</time>
      </trkpt>
      <trkpt lat="43.99012" lon="5.14805">
        <ele>309.2</ele>
        <time>2018-10-01T11:47:54Z</time>
      </trkpt>
      <trkpt lat="43.99013" lon="5.14805">
        <ele>308.72</ele>
        <time>2018-10-01T11:48:11Z</time>
      </trkpt>
      <trkpt lat="43.99015" lon="5.14809">
        <ele>310.16</ele>
        <time>2018-10-01T11:48:17Z</time>
      </trkpt>
      <trkpt lat="43.9902" lon="5.14825">
        <ele>307.28</ele>
        <time>2018-10-01T11:48:35Z</time>
      </trkpt>
      <trkpt lat="43.99026" lon="5.14838">
        <ele>303.91</ele>
        <time>2018-10-01T11:48:50Z</time>
      </trkpt>
      <trkpt lat="43.99029" lon="5.14844">
        <ele>304.39</ele>
        <time>2018-10-01T11:48:56Z</time>
      </trkpt>
      <trkpt lat="43.99032" lon="5.14851">
        <ele>306.8</ele>
        <time>2018-10-01T11:49:04Z</time>
      </trkpt>
      <trkpt lat="43.99033" lon="5.14852">
        <ele>303.43</ele>
        <time>2018-10-01T11:49:05Z</time>
      </trkpt>
      <trkpt lat="43.99033" lon="5.14853">
        <ele>303.43</ele>
        <time>2018-10-01T11:49:06Z</time>
      </trkpt>
      <trkpt lat="43.99043" lon="5.14871">
        <ele>303.91</ele>
        <time>2018-10-01T11:49:27Z</time>
      </trkpt>
      <trkpt lat="43.99043" lon="5.14872">
        <ele>303.91</ele>
        <time>2018-10-01T11:49:28Z</time>
      </trkpt>
      <trkpt lat="43.99049" lon="5.14884">
        <ele>303.91</ele>
        <time>2018-10-01T11:49:41Z</time>
      </trkpt>
      <trkpt lat="43.99051" lon="5.14887">
        <ele>302.95</ele>
        <time>2018-10-01T11:49:44Z</time>
      </trkpt>
      <trkpt lat="43.99067" lon="5.14889">
        <ele>301.51</ele>
        <time>2018-10-01T11:50:04Z</time>
      </trkpt>
      <trkpt lat="43.99067" lon="5.14889">
        <ele>300.55</ele>
        <time>2018-10-01T11:50:22Z</time>
      </trkpt>
      <trkpt lat="43.99067" lon="5.14889">
        <ele>301.99</ele>
        <time>2018-10-01T11:50:24Z</time>
      </trkpt>
      <trkpt lat="43.99067" lon="5.14887">
        <ele>302.47</ele>
        <time>2018-10-01T11:50:33Z</time>
      </trkpt>
      <trkpt lat="43.99073" lon="5.14888">
        <ele>300.55</ele>
        <time>2018-10-01T11:50:44Z</time>
      </trkpt>
      <trkpt lat="43.99079" lon="5.14888">
        <ele>302.95</ele>
        <time>2018-10-01T11:50:53Z</time>
      </trkpt>
      <trkpt lat="43.99082" lon="5.14888">
        <ele>299.59</ele>
        <time>2018-10-01T11:50:56Z</time>
      </trkpt>
      <trkpt lat="43.99083" lon="5.14888">
        <ele>298.63</ele>
        <time>2018-10-01T11:50:58Z</time>
      </trkpt>
      <trkpt lat="43.99085" lon="5.14887">
        <ele>300.07</ele>
        <time>2018-10-01T11:51:01Z</time>
      </trkpt>
      <trkpt lat="43.99087" lon="5.14888">
        <ele>299.11</ele>
        <time>2018-10-01T11:51:03Z</time>
      </trkpt>
      <trkpt lat="43.99092" lon="5.14889">
        <ele>298.63</ele>
        <time>2018-10-01T11:51:09Z</time>
      </trkpt>
      <trkpt lat="43.99097" lon="5.14891">
        <ele>297.67</ele>
        <time>2018-10-01T11:51:16Z</time>
      </trkpt>
      <trkpt lat="43.99109" lon="5.14889">
        <ele>297.67</ele>
        <time>2018-10-01T11:51:29Z</time>
      </trkpt>
      <trkpt lat="43.99115" lon="5.14889">
        <ele>293.82</ele>
        <time>2018-10-01T11:51:35Z</time>
      </trkpt>
      <trkpt lat="43.99116" lon="5.14889">
        <ele>293.82</ele>
        <time>2018-10-01T11:51:36Z</time>
      </trkpt>
      <trkpt lat="43.99123" lon="5.14889">
        <ele>297.67</ele>
        <time>2018-10-01T11:51:44Z</time>
      </trkpt>
      <trkpt lat="43.99138" lon="5.14885">
        <ele>294.78</ele>
        <time>2018-10-01T11:52:03Z</time>
      </trkpt>
      <trkpt lat="43.99149" lon="5.14883">
        <ele>292.86</ele>
        <time>2018-10-01T11:52:14Z</time>
      </trkpt>
      <trkpt lat="43.99156" lon="5.14882">
        <ele>292.86</ele>
        <time>2018-10-01T11:52:22Z</time>
      </trkpt>
      <trkpt lat="43.9917" lon="5.14869">
        <ele>291.42</ele>
        <time>2018-10-01T11:52:39Z</time>
      </trkpt>
      <trkpt lat="43.99175" lon="5.14861">
        <ele>292.86</ele>
        <time>2018-10-01T11:52:47Z</time>
      </trkpt>
      <trkpt lat="43.99186" lon="5.14854">
        <ele>290.94</ele>
        <time>2018-10-01T11:53:00Z</time>
      </trkpt>
      <trkpt lat="43.9919" lon="5.14852">
        <ele>292.38</ele>
        <time>2018-10-01T11:53:05Z</time>
      </trkpt>
      <trkpt lat="43.99205" lon="5.14845">
        <ele>294.3</ele>
        <time>2018-10-01T11:53:23Z</time>
      </trkpt>
      <trkpt lat="43.99207" lon="5.14844">
        <ele>292.86</ele>
        <time>2018-10-01T11:53:26Z</time>
      </trkpt>
      <trkpt lat="43.99218" lon="5.14836">
        <ele>292.86</ele>
        <time>2018-10-01T11:53:36Z</time>
      </trkpt>
      <trkpt lat="43.99234" lon="5.14831">
        <ele>294.3</ele>
        <time>2018-10-01T11:53:53Z</time>
      </trkpt>
      <trkpt lat="43.99253" lon="5.14825">
        <ele>294.78</ele>
        <time>2018-10-01T11:54:14Z</time>
      </trkpt>
      <trkpt lat="43.99264" lon="5.14822">
        <ele>293.34</ele>
        <time>2018-10-01T11:54:25Z</time>
      </trkpt>
      <trkpt lat="43.99287" lon="5.14812">
        <ele>292.38</ele>
        <time>2018-10-01T11:54:50Z</time>
      </trkpt>
      <trkpt lat="43.99294" lon="5.1481">
        <ele>292.86</ele>
        <time>2018-10-01T11:54:56Z</time>
      </trkpt>
      <trkpt lat="43.99305" lon="5.14805">
        <ele>292.86</ele>
        <time>2018-10-01T11:55:08Z</time>
      </trkpt>
      <trkpt lat="43.9931" lon="5.14803">
        <ele>293.34</ele>
        <time>2018-10-01T11:55:13Z</time>
      </trkpt>
      <trkpt lat="43.99319" lon="5.148">
        <ele>291.9</ele>
        <time>2018-10-01T11:55:22Z</time>
      </trkpt>
      <trkpt lat="43.99337" lon="5.14795">
        <ele>291.42</ele>
        <time>2018-10-01T11:55:42Z</time>
      </trkpt>
      <trkpt lat="43.99348" lon="5.1479">
        <ele>291.42</ele>
        <time>2018-10-01T11:55:53Z</time>
      </trkpt>
      <trkpt lat="43.9935" lon="5.1479">
        <ele>290.46</ele>
        <time>2018-10-01T11:55:55Z</time>
      </trkpt>
      <trkpt lat="43.99376" lon="5.14777">
        <ele>291.9</ele>
        <time>2018-10-01T11:56:19Z</time>
      </trkpt>
      <trkpt lat="43.99383" lon="5.14775">
        <ele>290.46</ele>
        <time>2018-10-01T11:56:26Z</time>
      </trkpt>
      <trkpt lat="43.99385" lon="5.14775">
        <ele>292.38</ele>
        <time>2018-10-01T11:56:28Z</time>
      </trkpt>
      <trkpt lat="43.99405" lon="5.14778">
        <ele>290.94</ele>
        <time>2018-10-01T11:56:50Z</time>
      </trkpt>
      <trkpt lat="43.99412" lon="5.1478">
        <ele>293.82</ele>
        <time>2018-10-01T11:56:57Z</time>
      </trkpt>
      <trkpt lat="43.99413" lon="5.1478">
        <ele>293.82</ele>
        <time>2018-10-01T11:56:58Z</time>
      </trkpt>
      <trkpt lat="43.99418" lon="5.14782">
        <ele>291.9</ele>
        <time>2018-10-01T11:57:05Z</time>
      </trkpt>
      <trkpt lat="43.9942" lon="5.14781">
        <ele>289.01</ele>
        <time>2018-10-01T11:57:11Z</time>
      </trkpt>
      <trkpt lat="43.99421" lon="5.1478">
        <ele>289.01</ele>
        <time>2018-10-01T11:57:12Z</time>
      </trkpt>
      <trkpt lat="43.99422" lon="5.1478">
        <ele>290.46</ele>
        <time>2018-10-01T11:57:14Z</time>
      </trkpt>
      <trkpt lat="43.99426" lon="5.1478">
        <ele>290.94</ele>
        <time>2018-10-01T11:57:19Z</time>
      </trkpt>
      <trkpt lat="43.9943" lon="5.1478">
        <ele>292.38</ele>
        <time>2018-10-01T11:57:23Z</time>
      </trkpt>
      <trkpt lat="43.99436" lon="5.14782">
        <ele>293.82</ele>
        <time>2018-10-01T11:57:30Z</time>
      </trkpt>
      <trkpt lat="43.99445" lon="5.14785">
        <ele>292.86</ele>
        <time>2018-10-01T11:57:38Z</time>
      </trkpt>
      <trkpt lat="43.99462" lon="5.14793">
        <ele>292.86</ele>
        <time>2018-10-01T11:57:56Z</time>
      </trkpt>
      <trkpt lat="43.99464" lon="5.14796">
        <ele>293.82</ele>
        <time>2018-10-01T11:58:00Z</time>
      </trkpt>
      <trkpt lat="43.99471" lon="5.14806">
        <ele>295.74</ele>
        <time>2018-10-01T11:58:19Z</time>
      </trkpt>
      <trkpt lat="43.99475" lon="5.1481">
        <ele>297.18</ele>
        <time>2018-10-01T11:58:33Z</time>
      </trkpt>
      <trkpt lat="43.99486" lon="5.14804">
        <ele>295.26</ele>
        <time>2018-10-01T11:58:49Z</time>
      </trkpt>
      <trkpt lat="43.99488" lon="5.14804">
        <ele>295.74</ele>
        <time>2018-10-01T11:59:01Z</time>
      </trkpt>
    </trkseg>
  </trk>
</gpx>